<?xml version="1.0" encoding="UTF-8" standalone="no" ?>
<gpx xmlns="http://www.topografix.com/GPX/1/1" xmlns:xsi="http://www.w3.org/2001/XMLSchema-instance" xsi:schemaLocation="http://www.topografix.com/GPX/1/1 http://www.topografix.com/GPX/1/1/gpx.xsd" version="1.1" creator="VisuGPX - https://www.visugpx.com">
  <metadata>
    <name>Sortie Moto</name>
  </metadata>
  <trk>
    <name><![CDATA[Journal actif: 2020-04-15 14:51]]></name>
    <trkseg>
      <trkpt lat="46.06785" lon="6.30754">
        <ele>532.71</ele>
        <time>2020-04-15T12:51:28Z</time>
      </trkpt>
      <trkpt lat="46.06796" lon="6.30749">
        <ele>534.15</ele>
        <time>2020-04-15T12:51:29Z</time>
      </trkpt>
      <trkpt lat="46.06795" lon="6.30746">
        <ele>536.07</ele>
        <time>2020-04-15T12:51:30Z</time>
      </trkpt>
      <trkpt lat="46.06794" lon="6.30742">
        <ele>537.99</ele>
        <time>2020-04-15T12:51:31Z</time>
      </trkpt>
      <trkpt lat="46.06792" lon="6.30733">
        <ele>538.96</ele>
        <time>2020-04-15T12:51:32Z</time>
      </trkpt>
      <trkpt lat="46.0679" lon="6.3072">
        <ele>539.92</ele>
        <time>2020-04-15T12:51:33Z</time>
      </trkpt>
      <trkpt lat="46.06786" lon="6.30706">
        <ele>540.4</ele>
        <time>2020-04-15T12:51:34Z</time>
      </trkpt>
      <trkpt lat="46.06785" lon="6.30675">
        <ele>541.84</ele>
        <time>2020-04-15T12:51:36Z</time>
      </trkpt>
      <trkpt lat="46.06784" lon="6.30658">
        <ele>542.8</ele>
        <time>2020-04-15T12:51:37Z</time>
      </trkpt>
      <trkpt lat="46.06783" lon="6.30642">
        <ele>544.24</ele>
        <time>2020-04-15T12:51:38Z</time>
      </trkpt>
      <trkpt lat="46.06785" lon="6.30599">
        <ele>548.57</ele>
        <time>2020-04-15T12:51:41Z</time>
      </trkpt>
      <trkpt lat="46.06789" lon="6.30585">
        <ele>548.57</ele>
        <time>2020-04-15T12:51:42Z</time>
      </trkpt>
      <trkpt lat="46.068" lon="6.30546">
        <ele>549.05</ele>
        <time>2020-04-15T12:51:45Z</time>
      </trkpt>
      <trkpt lat="46.06805" lon="6.30533">
        <ele>549.05</ele>
        <time>2020-04-15T12:51:46Z</time>
      </trkpt>
      <trkpt lat="46.06809" lon="6.30522">
        <ele>549.53</ele>
        <time>2020-04-15T12:51:47Z</time>
      </trkpt>
      <trkpt lat="46.06826" lon="6.30473">
        <ele>551.45</ele>
        <time>2020-04-15T12:51:52Z</time>
      </trkpt>
      <trkpt lat="46.06855" lon="6.3039">
        <ele>566.83</ele>
        <time>2020-04-15T12:52:00Z</time>
      </trkpt>
      <trkpt lat="46.06858" lon="6.30362">
        <ele>566.35</ele>
        <time>2020-04-15T12:52:02Z</time>
      </trkpt>
      <trkpt lat="46.06858" lon="6.30348">
        <ele>566.83</ele>
        <time>2020-04-15T12:52:03Z</time>
      </trkpt>
      <trkpt lat="46.06862" lon="6.30257">
        <ele>569.72</ele>
        <time>2020-04-15T12:52:10Z</time>
      </trkpt>
      <trkpt lat="46.06864" lon="6.30249">
        <ele>570.2</ele>
        <time>2020-04-15T12:52:11Z</time>
      </trkpt>
      <trkpt lat="46.06866" lon="6.30241">
        <ele>570.2</ele>
        <time>2020-04-15T12:52:12Z</time>
      </trkpt>
      <trkpt lat="46.06871" lon="6.30234">
        <ele>570.68</ele>
        <time>2020-04-15T12:52:13Z</time>
      </trkpt>
      <trkpt lat="46.06885" lon="6.30233">
        <ele>570.68</ele>
        <time>2020-04-15T12:52:14Z</time>
      </trkpt>
      <trkpt lat="46.06953" lon="6.30193">
        <ele>573.08</ele>
        <time>2020-04-15T12:52:20Z</time>
      </trkpt>
      <trkpt lat="46.07035" lon="6.30091">
        <ele>575.01</ele>
        <time>2020-04-15T12:52:29Z</time>
      </trkpt>
      <trkpt lat="46.07041" lon="6.30081">
        <ele>575.49</ele>
        <time>2020-04-15T12:52:30Z</time>
      </trkpt>
      <trkpt lat="46.07047" lon="6.30073">
        <ele>575.97</ele>
        <time>2020-04-15T12:52:31Z</time>
      </trkpt>
      <trkpt lat="46.07051" lon="6.30066">
        <ele>575.97</ele>
        <time>2020-04-15T12:52:32Z</time>
      </trkpt>
      <trkpt lat="46.07055" lon="6.30061">
        <ele>576.45</ele>
        <time>2020-04-15T12:52:33Z</time>
      </trkpt>
      <trkpt lat="46.0706" lon="6.30057">
        <ele>576.93</ele>
        <time>2020-04-15T12:52:34Z</time>
      </trkpt>
      <trkpt lat="46.07078" lon="6.30057">
        <ele>577.89</ele>
        <time>2020-04-15T12:52:35Z</time>
      </trkpt>
      <trkpt lat="46.07078" lon="6.30057">
        <ele>578.37</ele>
        <time>2020-04-15T12:52:36Z</time>
      </trkpt>
      <trkpt lat="46.07083" lon="6.30059">
        <ele>578.85</ele>
        <time>2020-04-15T12:52:37Z</time>
      </trkpt>
      <trkpt lat="46.0709" lon="6.30056">
        <ele>578.85</ele>
        <time>2020-04-15T12:52:38Z</time>
      </trkpt>
      <trkpt lat="46.07096" lon="6.30042">
        <ele>578.85</ele>
        <time>2020-04-15T12:52:39Z</time>
      </trkpt>
      <trkpt lat="46.07106" lon="6.30033">
        <ele>578.37</ele>
        <time>2020-04-15T12:52:40Z</time>
      </trkpt>
      <trkpt lat="46.0714" lon="6.30005">
        <ele>577.41</ele>
        <time>2020-04-15T12:52:43Z</time>
      </trkpt>
      <trkpt lat="46.0725" lon="6.29915">
        <ele>576.45</ele>
        <time>2020-04-15T12:52:52Z</time>
      </trkpt>
      <trkpt lat="46.07263" lon="6.29905">
        <ele>576.45</ele>
        <time>2020-04-15T12:52:53Z</time>
      </trkpt>
      <trkpt lat="46.07274" lon="6.29897">
        <ele>576.45</ele>
        <time>2020-04-15T12:52:54Z</time>
      </trkpt>
      <trkpt lat="46.0732" lon="6.2986">
        <ele>576.93</ele>
        <time>2020-04-15T12:53:00Z</time>
      </trkpt>
      <trkpt lat="46.07372" lon="6.2982">
        <ele>578.37</ele>
        <time>2020-04-15T12:53:07Z</time>
      </trkpt>
      <trkpt lat="46.07487" lon="6.29747">
        <ele>579.81</ele>
        <time>2020-04-15T12:53:16Z</time>
      </trkpt>
      <trkpt lat="46.07501" lon="6.29741">
        <ele>580.29</ele>
        <time>2020-04-15T12:53:17Z</time>
      </trkpt>
      <trkpt lat="46.07515" lon="6.29736">
        <ele>580.29</ele>
        <time>2020-04-15T12:53:18Z</time>
      </trkpt>
      <trkpt lat="46.07545" lon="6.29737">
        <ele>579.81</ele>
        <time>2020-04-15T12:53:20Z</time>
      </trkpt>
      <trkpt lat="46.07559" lon="6.29737">
        <ele>579.81</ele>
        <time>2020-04-15T12:53:21Z</time>
      </trkpt>
      <trkpt lat="46.07573" lon="6.2974">
        <ele>579.81</ele>
        <time>2020-04-15T12:53:22Z</time>
      </trkpt>
      <trkpt lat="46.07587" lon="6.29747">
        <ele>579.81</ele>
        <time>2020-04-15T12:53:23Z</time>
      </trkpt>
      <trkpt lat="46.07601" lon="6.29753">
        <ele>579.33</ele>
        <time>2020-04-15T12:53:24Z</time>
      </trkpt>
      <trkpt lat="46.0763" lon="6.29761">
        <ele>578.37</ele>
        <time>2020-04-15T12:53:26Z</time>
      </trkpt>
      <trkpt lat="46.07645" lon="6.29761">
        <ele>577.89</ele>
        <time>2020-04-15T12:53:27Z</time>
      </trkpt>
      <trkpt lat="46.0766" lon="6.29761">
        <ele>576.93</ele>
        <time>2020-04-15T12:53:28Z</time>
      </trkpt>
      <trkpt lat="46.07676" lon="6.29754">
        <ele>575.97</ele>
        <time>2020-04-15T12:53:29Z</time>
      </trkpt>
      <trkpt lat="46.0769" lon="6.29744">
        <ele>575.01</ele>
        <time>2020-04-15T12:53:30Z</time>
      </trkpt>
      <trkpt lat="46.07706" lon="6.29734">
        <ele>574.04</ele>
        <time>2020-04-15T12:53:31Z</time>
      </trkpt>
      <trkpt lat="46.07748" lon="6.29708">
        <ele>572.12</ele>
        <time>2020-04-15T12:53:34Z</time>
      </trkpt>
      <trkpt lat="46.07761" lon="6.29697">
        <ele>571.16</ele>
        <time>2020-04-15T12:53:35Z</time>
      </trkpt>
      <trkpt lat="46.07795" lon="6.2967">
        <ele>572.12</ele>
        <time>2020-04-15T12:53:38Z</time>
      </trkpt>
      <trkpt lat="46.07802" lon="6.29661">
        <ele>572.6</ele>
        <time>2020-04-15T12:53:39Z</time>
      </trkpt>
      <trkpt lat="46.07816" lon="6.29643">
        <ele>573.56</ele>
        <time>2020-04-15T12:53:41Z</time>
      </trkpt>
      <trkpt lat="46.07818" lon="6.29639">
        <ele>574.04</ele>
        <time>2020-04-15T12:53:42Z</time>
      </trkpt>
      <trkpt lat="46.07814" lon="6.2962">
        <ele>574.53</ele>
        <time>2020-04-15T12:53:44Z</time>
      </trkpt>
      <trkpt lat="46.07806" lon="6.29615">
        <ele>575.01</ele>
        <time>2020-04-15T12:53:45Z</time>
      </trkpt>
      <trkpt lat="46.07794" lon="6.29623">
        <ele>575.01</ele>
        <time>2020-04-15T12:53:46Z</time>
      </trkpt>
      <trkpt lat="46.07787" lon="6.29628">
        <ele>575.49</ele>
        <time>2020-04-15T12:53:47Z</time>
      </trkpt>
      <trkpt lat="46.07779" lon="6.29634">
        <ele>575.97</ele>
        <time>2020-04-15T12:53:48Z</time>
      </trkpt>
      <trkpt lat="46.07771" lon="6.2964">
        <ele>576.45</ele>
        <time>2020-04-15T12:53:49Z</time>
      </trkpt>
      <trkpt lat="46.07756" lon="6.29652">
        <ele>577.41</ele>
        <time>2020-04-15T12:53:51Z</time>
      </trkpt>
      <trkpt lat="46.07748" lon="6.29648">
        <ele>578.37</ele>
        <time>2020-04-15T12:53:52Z</time>
      </trkpt>
      <trkpt lat="46.07741" lon="6.29644">
        <ele>578.37</ele>
        <time>2020-04-15T12:53:53Z</time>
      </trkpt>
      <trkpt lat="46.07734" lon="6.29641">
        <ele>578.85</ele>
        <time>2020-04-15T12:53:54Z</time>
      </trkpt>
      <trkpt lat="46.07722" lon="6.29635">
        <ele>579.33</ele>
        <time>2020-04-15T12:53:55Z</time>
      </trkpt>
      <trkpt lat="46.0772" lon="6.29629">
        <ele>579.33</ele>
        <time>2020-04-15T12:53:56Z</time>
      </trkpt>
      <trkpt lat="46.07716" lon="6.29617">
        <ele>579.33</ele>
        <time>2020-04-15T12:53:57Z</time>
      </trkpt>
      <trkpt lat="46.07712" lon="6.29605">
        <ele>579.81</ele>
        <time>2020-04-15T12:53:58Z</time>
      </trkpt>
      <trkpt lat="46.07708" lon="6.29592">
        <ele>580.29</ele>
        <time>2020-04-15T12:53:59Z</time>
      </trkpt>
      <trkpt lat="46.07703" lon="6.29577">
        <ele>580.77</ele>
        <time>2020-04-15T12:54:00Z</time>
      </trkpt>
      <trkpt lat="46.07668" lon="6.29476">
        <ele>585.1</ele>
        <time>2020-04-15T12:54:04Z</time>
      </trkpt>
      <trkpt lat="46.07614" lon="6.29333">
        <ele>593.27</ele>
        <time>2020-04-15T12:54:08Z</time>
      </trkpt>
      <trkpt lat="46.07583" lon="6.29253">
        <ele>598.56</ele>
        <time>2020-04-15T12:54:11Z</time>
      </trkpt>
      <trkpt lat="46.07576" lon="6.29232">
        <ele>599.52</ele>
        <time>2020-04-15T12:54:12Z</time>
      </trkpt>
      <trkpt lat="46.07573" lon="6.29208">
        <ele>601.44</ele>
        <time>2020-04-15T12:54:14Z</time>
      </trkpt>
      <trkpt lat="46.07576" lon="6.29164">
        <ele>601.92</ele>
        <time>2020-04-15T12:54:15Z</time>
      </trkpt>
      <trkpt lat="46.07582" lon="6.29144">
        <ele>602.4</ele>
        <time>2020-04-15T12:54:16Z</time>
      </trkpt>
      <trkpt lat="46.07589" lon="6.29124">
        <ele>601.92</ele>
        <time>2020-04-15T12:54:17Z</time>
      </trkpt>
      <trkpt lat="46.07599" lon="6.29106">
        <ele>601.92</ele>
        <time>2020-04-15T12:54:18Z</time>
      </trkpt>
      <trkpt lat="46.07613" lon="6.29093">
        <ele>601.44</ele>
        <time>2020-04-15T12:54:19Z</time>
      </trkpt>
      <trkpt lat="46.07627" lon="6.29081">
        <ele>601.44</ele>
        <time>2020-04-15T12:54:20Z</time>
      </trkpt>
      <trkpt lat="46.07644" lon="6.29071">
        <ele>600.96</ele>
        <time>2020-04-15T12:54:21Z</time>
      </trkpt>
      <trkpt lat="46.07663" lon="6.2906">
        <ele>600.48</ele>
        <time>2020-04-15T12:54:22Z</time>
      </trkpt>
      <trkpt lat="46.07689" lon="6.2905">
        <ele>600</ele>
        <time>2020-04-15T12:54:23Z</time>
      </trkpt>
      <trkpt lat="46.07825" lon="6.29009">
        <ele>596.64</ele>
        <time>2020-04-15T12:54:27Z</time>
      </trkpt>
      <trkpt lat="46.08048" lon="6.28925">
        <ele>591.83</ele>
        <time>2020-04-15T12:54:32Z</time>
      </trkpt>
      <trkpt lat="46.08342" lon="6.28841">
        <ele>584.62</ele>
        <time>2020-04-15T12:54:38Z</time>
      </trkpt>
      <trkpt lat="46.0862" lon="6.28842">
        <ele>576.93</ele>
        <time>2020-04-15T12:54:44Z</time>
      </trkpt>
      <trkpt lat="46.08835" lon="6.28886">
        <ele>569.72</ele>
        <time>2020-04-15T12:54:49Z</time>
      </trkpt>
      <trkpt lat="46.0904" lon="6.28931">
        <ele>561.55</ele>
        <time>2020-04-15T12:54:55Z</time>
      </trkpt>
      <trkpt lat="46.09393" lon="6.29032">
        <ele>542.32</ele>
        <time>2020-04-15T12:55:06Z</time>
      </trkpt>
      <trkpt lat="46.09634" lon="6.2918">
        <ele>528.38</ele>
        <time>2020-04-15T12:55:14Z</time>
      </trkpt>
      <trkpt lat="46.09711" lon="6.29263">
        <ele>524.06</ele>
        <time>2020-04-15T12:55:17Z</time>
      </trkpt>
      <trkpt lat="46.09846" lon="6.29467">
        <ele>513.48</ele>
        <time>2020-04-15T12:55:23Z</time>
      </trkpt>
      <trkpt lat="46.09936" lon="6.29717">
        <ele>503.39</ele>
        <time>2020-04-15T12:55:29Z</time>
      </trkpt>
      <trkpt lat="46.10072" lon="6.30142">
        <ele>488.49</ele>
        <time>2020-04-15T12:55:39Z</time>
      </trkpt>
      <trkpt lat="46.10209" lon="6.30399">
        <ele>483.2</ele>
        <time>2020-04-15T12:55:46Z</time>
      </trkpt>
      <trkpt lat="46.10406" lon="6.3065">
        <ele>479.35</ele>
        <time>2020-04-15T12:55:54Z</time>
      </trkpt>
      <trkpt lat="46.10643" lon="6.30972">
        <ele>475.03</ele>
        <time>2020-04-15T12:56:04Z</time>
      </trkpt>
      <trkpt lat="46.10819" lon="6.31309">
        <ele>472.63</ele>
        <time>2020-04-15T12:56:13Z</time>
      </trkpt>
      <trkpt lat="46.11027" lon="6.3173">
        <ele>465.42</ele>
        <time>2020-04-15T12:56:24Z</time>
      </trkpt>
      <trkpt lat="46.11212" lon="6.31997">
        <ele>456.28</ele>
        <time>2020-04-15T12:56:32Z</time>
      </trkpt>
      <trkpt lat="46.11504" lon="6.3231">
        <ele>447.15</ele>
        <time>2020-04-15T12:56:43Z</time>
      </trkpt>
      <trkpt lat="46.11865" lon="6.32683">
        <ele>443.79</ele>
        <time>2020-04-15T12:56:58Z</time>
      </trkpt>
      <trkpt lat="46.12076" lon="6.32884">
        <ele>441.38</ele>
        <time>2020-04-15T12:57:06Z</time>
      </trkpt>
      <trkpt lat="46.12152" lon="6.3292">
        <ele>442.34</ele>
        <time>2020-04-15T12:57:09Z</time>
      </trkpt>
      <trkpt lat="46.12178" lon="6.32927">
        <ele>442.82</ele>
        <time>2020-04-15T12:57:10Z</time>
      </trkpt>
      <trkpt lat="46.12204" lon="6.32928">
        <ele>443.31</ele>
        <time>2020-04-15T12:57:11Z</time>
      </trkpt>
      <trkpt lat="46.12231" lon="6.3293">
        <ele>443.31</ele>
        <time>2020-04-15T12:57:12Z</time>
      </trkpt>
      <trkpt lat="46.12258" lon="6.32928">
        <ele>443.31</ele>
        <time>2020-04-15T12:57:13Z</time>
      </trkpt>
      <trkpt lat="46.12285" lon="6.32925">
        <ele>443.31</ele>
        <time>2020-04-15T12:57:14Z</time>
      </trkpt>
      <trkpt lat="46.12312" lon="6.32916">
        <ele>442.82</ele>
        <time>2020-04-15T12:57:15Z</time>
      </trkpt>
      <trkpt lat="46.12338" lon="6.32905">
        <ele>442.34</ele>
        <time>2020-04-15T12:57:16Z</time>
      </trkpt>
      <trkpt lat="46.12365" lon="6.32892">
        <ele>441.38</ele>
        <time>2020-04-15T12:57:17Z</time>
      </trkpt>
      <trkpt lat="46.12391" lon="6.32877">
        <ele>440.9</ele>
        <time>2020-04-15T12:57:18Z</time>
      </trkpt>
      <trkpt lat="46.12415" lon="6.32855">
        <ele>439.94</ele>
        <time>2020-04-15T12:57:19Z</time>
      </trkpt>
      <trkpt lat="46.12439" lon="6.32832">
        <ele>438.98</ele>
        <time>2020-04-15T12:57:20Z</time>
      </trkpt>
      <trkpt lat="46.12631" lon="6.32626">
        <ele>435.13</ele>
        <time>2020-04-15T12:57:28Z</time>
      </trkpt>
      <trkpt lat="46.12799" lon="6.32477">
        <ele>435.13</ele>
        <time>2020-04-15T12:57:33Z</time>
      </trkpt>
      <trkpt lat="46.12983" lon="6.32328">
        <ele>434.65</ele>
        <time>2020-04-15T12:57:39Z</time>
      </trkpt>
      <trkpt lat="46.13305" lon="6.32051">
        <ele>435.13</ele>
        <time>2020-04-15T12:57:50Z</time>
      </trkpt>
      <trkpt lat="46.13528" lon="6.31915">
        <ele>437.54</ele>
        <time>2020-04-15T12:57:57Z</time>
      </trkpt>
      <trkpt lat="46.13844" lon="6.31779">
        <ele>444.75</ele>
        <time>2020-04-15T12:58:07Z</time>
      </trkpt>
      <trkpt lat="46.14073" lon="6.31727">
        <ele>451.96</ele>
        <time>2020-04-15T12:58:15Z</time>
      </trkpt>
      <trkpt lat="46.14248" lon="6.31716">
        <ele>460.13</ele>
        <time>2020-04-15T12:58:22Z</time>
      </trkpt>
      <trkpt lat="46.14274" lon="6.31727">
        <ele>460.61</ele>
        <time>2020-04-15T12:58:23Z</time>
      </trkpt>
      <trkpt lat="46.14366" lon="6.31763">
        <ele>463.01</ele>
        <time>2020-04-15T12:58:27Z</time>
      </trkpt>
      <trkpt lat="46.14391" lon="6.31774">
        <ele>463.97</ele>
        <time>2020-04-15T12:58:28Z</time>
      </trkpt>
      <trkpt lat="46.14415" lon="6.31771">
        <ele>464.93</ele>
        <time>2020-04-15T12:58:29Z</time>
      </trkpt>
      <trkpt lat="46.14439" lon="6.31767">
        <ele>466.38</ele>
        <time>2020-04-15T12:58:30Z</time>
      </trkpt>
      <trkpt lat="46.14464" lon="6.31761">
        <ele>467.82</ele>
        <time>2020-04-15T12:58:31Z</time>
      </trkpt>
      <trkpt lat="46.14592" lon="6.31729">
        <ele>474.07</ele>
        <time>2020-04-15T12:58:36Z</time>
      </trkpt>
      <trkpt lat="46.14619" lon="6.31729">
        <ele>475.03</ele>
        <time>2020-04-15T12:58:37Z</time>
      </trkpt>
      <trkpt lat="46.14646" lon="6.31735">
        <ele>476.47</ele>
        <time>2020-04-15T12:58:38Z</time>
      </trkpt>
      <trkpt lat="46.14674" lon="6.31742">
        <ele>477.43</ele>
        <time>2020-04-15T12:58:39Z</time>
      </trkpt>
      <trkpt lat="46.147" lon="6.31755">
        <ele>478.87</ele>
        <time>2020-04-15T12:58:40Z</time>
      </trkpt>
      <trkpt lat="46.14726" lon="6.31769">
        <ele>480.32</ele>
        <time>2020-04-15T12:58:41Z</time>
      </trkpt>
      <trkpt lat="46.14751" lon="6.31783">
        <ele>481.76</ele>
        <time>2020-04-15T12:58:42Z</time>
      </trkpt>
      <trkpt lat="46.14874" lon="6.3186">
        <ele>486.08</ele>
        <time>2020-04-15T12:58:48Z</time>
      </trkpt>
      <trkpt lat="46.14903" lon="6.31888">
        <ele>487.05</ele>
        <time>2020-04-15T12:58:50Z</time>
      </trkpt>
      <trkpt lat="46.14916" lon="6.31903">
        <ele>487.53</ele>
        <time>2020-04-15T12:58:51Z</time>
      </trkpt>
      <trkpt lat="46.14927" lon="6.31919">
        <ele>488.01</ele>
        <time>2020-04-15T12:58:52Z</time>
      </trkpt>
      <trkpt lat="46.14937" lon="6.31937">
        <ele>488.49</ele>
        <time>2020-04-15T12:58:53Z</time>
      </trkpt>
      <trkpt lat="46.14943" lon="6.31958">
        <ele>488.49</ele>
        <time>2020-04-15T12:58:54Z</time>
      </trkpt>
      <trkpt lat="46.14947" lon="6.31979">
        <ele>488.49</ele>
        <time>2020-04-15T12:58:55Z</time>
      </trkpt>
      <trkpt lat="46.1495" lon="6.31999">
        <ele>488.49</ele>
        <time>2020-04-15T12:58:56Z</time>
      </trkpt>
      <trkpt lat="46.14953" lon="6.32018">
        <ele>488.49</ele>
        <time>2020-04-15T12:58:57Z</time>
      </trkpt>
      <trkpt lat="46.14952" lon="6.32035">
        <ele>488.49</ele>
        <time>2020-04-15T12:58:58Z</time>
      </trkpt>
      <trkpt lat="46.14952" lon="6.32052">
        <ele>488.49</ele>
        <time>2020-04-15T12:58:59Z</time>
      </trkpt>
      <trkpt lat="46.14945" lon="6.32077">
        <ele>488.49</ele>
        <time>2020-04-15T12:59:00Z</time>
      </trkpt>
      <trkpt lat="46.14943" lon="6.32083">
        <ele>488.97</ele>
        <time>2020-04-15T12:59:01Z</time>
      </trkpt>
      <trkpt lat="46.14946" lon="6.321">
        <ele>488.97</ele>
        <time>2020-04-15T12:59:02Z</time>
      </trkpt>
      <trkpt lat="46.14957" lon="6.32117">
        <ele>488.97</ele>
        <time>2020-04-15T12:59:03Z</time>
      </trkpt>
      <trkpt lat="46.14957" lon="6.32137">
        <ele>489.45</ele>
        <time>2020-04-15T12:59:04Z</time>
      </trkpt>
      <trkpt lat="46.14957" lon="6.32159">
        <ele>489.45</ele>
        <time>2020-04-15T12:59:05Z</time>
      </trkpt>
      <trkpt lat="46.14957" lon="6.32329">
        <ele>491.37</ele>
        <time>2020-04-15T12:59:11Z</time>
      </trkpt>
      <trkpt lat="46.14962" lon="6.32355">
        <ele>491.37</ele>
        <time>2020-04-15T12:59:12Z</time>
      </trkpt>
      <trkpt lat="46.14968" lon="6.32381">
        <ele>491.85</ele>
        <time>2020-04-15T12:59:13Z</time>
      </trkpt>
      <trkpt lat="46.15016" lon="6.3259">
        <ele>496.66</ele>
        <time>2020-04-15T12:59:21Z</time>
      </trkpt>
      <trkpt lat="46.1502" lon="6.32617">
        <ele>497.62</ele>
        <time>2020-04-15T12:59:22Z</time>
      </trkpt>
      <trkpt lat="46.15021" lon="6.32646">
        <ele>498.58</ele>
        <time>2020-04-15T12:59:23Z</time>
      </trkpt>
      <trkpt lat="46.15018" lon="6.32674">
        <ele>499.54</ele>
        <time>2020-04-15T12:59:24Z</time>
      </trkpt>
      <trkpt lat="46.15015" lon="6.32702">
        <ele>500.02</ele>
        <time>2020-04-15T12:59:25Z</time>
      </trkpt>
      <trkpt lat="46.15011" lon="6.3273">
        <ele>501.46</ele>
        <time>2020-04-15T12:59:26Z</time>
      </trkpt>
      <trkpt lat="46.14997" lon="6.32838">
        <ele>506.75</ele>
        <time>2020-04-15T12:59:30Z</time>
      </trkpt>
      <trkpt lat="46.14997" lon="6.32864">
        <ele>508.19</ele>
        <time>2020-04-15T12:59:31Z</time>
      </trkpt>
      <trkpt lat="46.14998" lon="6.3289">
        <ele>509.64</ele>
        <time>2020-04-15T12:59:32Z</time>
      </trkpt>
      <trkpt lat="46.15002" lon="6.32916">
        <ele>511.08</ele>
        <time>2020-04-15T12:59:33Z</time>
      </trkpt>
      <trkpt lat="46.1501" lon="6.32938">
        <ele>512.52</ele>
        <time>2020-04-15T12:59:34Z</time>
      </trkpt>
      <trkpt lat="46.1502" lon="6.3296">
        <ele>513.96</ele>
        <time>2020-04-15T12:59:35Z</time>
      </trkpt>
      <trkpt lat="46.15031" lon="6.3298">
        <ele>514.92</ele>
        <time>2020-04-15T12:59:36Z</time>
      </trkpt>
      <trkpt lat="46.15042" lon="6.33001">
        <ele>516.37</ele>
        <time>2020-04-15T12:59:37Z</time>
      </trkpt>
      <trkpt lat="46.15174" lon="6.33202">
        <ele>532.71</ele>
        <time>2020-04-15T12:59:48Z</time>
      </trkpt>
      <trkpt lat="46.15208" lon="6.33252">
        <ele>536.07</ele>
        <time>2020-04-15T12:59:51Z</time>
      </trkpt>
      <trkpt lat="46.15218" lon="6.3327">
        <ele>536.55</ele>
        <time>2020-04-15T12:59:52Z</time>
      </trkpt>
      <trkpt lat="46.15224" lon="6.3329">
        <ele>537.51</ele>
        <time>2020-04-15T12:59:53Z</time>
      </trkpt>
      <trkpt lat="46.15229" lon="6.33311">
        <ele>537.99</ele>
        <time>2020-04-15T12:59:54Z</time>
      </trkpt>
      <trkpt lat="46.1523" lon="6.33333">
        <ele>538.48</ele>
        <time>2020-04-15T12:59:55Z</time>
      </trkpt>
      <trkpt lat="46.15229" lon="6.33356">
        <ele>538.96</ele>
        <time>2020-04-15T12:59:56Z</time>
      </trkpt>
      <trkpt lat="46.15222" lon="6.33378">
        <ele>539.44</ele>
        <time>2020-04-15T12:59:57Z</time>
      </trkpt>
      <trkpt lat="46.15216" lon="6.334">
        <ele>539.44</ele>
        <time>2020-04-15T12:59:58Z</time>
      </trkpt>
      <trkpt lat="46.15209" lon="6.33423">
        <ele>539.92</ele>
        <time>2020-04-15T12:59:59Z</time>
      </trkpt>
      <trkpt lat="46.15201" lon="6.33446">
        <ele>540.4</ele>
        <time>2020-04-15T13:00:00Z</time>
      </trkpt>
      <trkpt lat="46.15181" lon="6.33512">
        <ele>540.88</ele>
        <time>2020-04-15T13:00:03Z</time>
      </trkpt>
      <trkpt lat="46.15178" lon="6.33535">
        <ele>541.36</ele>
        <time>2020-04-15T13:00:04Z</time>
      </trkpt>
      <trkpt lat="46.15177" lon="6.33557">
        <ele>541.84</ele>
        <time>2020-04-15T13:00:05Z</time>
      </trkpt>
      <trkpt lat="46.15179" lon="6.33581">
        <ele>542.32</ele>
        <time>2020-04-15T13:00:06Z</time>
      </trkpt>
      <trkpt lat="46.15183" lon="6.33605">
        <ele>542.8</ele>
        <time>2020-04-15T13:00:07Z</time>
      </trkpt>
      <trkpt lat="46.15191" lon="6.33627">
        <ele>543.28</ele>
        <time>2020-04-15T13:00:08Z</time>
      </trkpt>
      <trkpt lat="46.15198" lon="6.33649">
        <ele>543.76</ele>
        <time>2020-04-15T13:00:09Z</time>
      </trkpt>
      <trkpt lat="46.15239" lon="6.33822">
        <ele>545.69</ele>
        <time>2020-04-15T13:00:16Z</time>
      </trkpt>
      <trkpt lat="46.15277" lon="6.33992">
        <ele>544.24</ele>
        <time>2020-04-15T13:00:23Z</time>
      </trkpt>
      <trkpt lat="46.15284" lon="6.34018">
        <ele>543.76</ele>
        <time>2020-04-15T13:00:24Z</time>
      </trkpt>
      <trkpt lat="46.15289" lon="6.34044">
        <ele>543.28</ele>
        <time>2020-04-15T13:00:25Z</time>
      </trkpt>
      <trkpt lat="46.15289" lon="6.34073">
        <ele>543.28</ele>
        <time>2020-04-15T13:00:26Z</time>
      </trkpt>
      <trkpt lat="46.15288" lon="6.34101">
        <ele>544.24</ele>
        <time>2020-04-15T13:00:27Z</time>
      </trkpt>
      <trkpt lat="46.15287" lon="6.34128">
        <ele>545.2</ele>
        <time>2020-04-15T13:00:28Z</time>
      </trkpt>
      <trkpt lat="46.15286" lon="6.34154">
        <ele>546.17</ele>
        <time>2020-04-15T13:00:29Z</time>
      </trkpt>
      <trkpt lat="46.15288" lon="6.34177">
        <ele>547.61</ele>
        <time>2020-04-15T13:00:30Z</time>
      </trkpt>
      <trkpt lat="46.15291" lon="6.34201">
        <ele>549.05</ele>
        <time>2020-04-15T13:00:31Z</time>
      </trkpt>
      <trkpt lat="46.15298" lon="6.34222">
        <ele>550.49</ele>
        <time>2020-04-15T13:00:32Z</time>
      </trkpt>
      <trkpt lat="46.15307" lon="6.34244">
        <ele>551.45</ele>
        <time>2020-04-15T13:00:33Z</time>
      </trkpt>
      <trkpt lat="46.1536" lon="6.34382">
        <ele>555.78</ele>
        <time>2020-04-15T13:00:40Z</time>
      </trkpt>
      <trkpt lat="46.15365" lon="6.34393">
        <ele>556.26</ele>
        <time>2020-04-15T13:00:41Z</time>
      </trkpt>
      <trkpt lat="46.15364" lon="6.34417">
        <ele>556.74</ele>
        <time>2020-04-15T13:00:42Z</time>
      </trkpt>
      <trkpt lat="46.15357" lon="6.34422">
        <ele>557.22</ele>
        <time>2020-04-15T13:00:43Z</time>
      </trkpt>
      <trkpt lat="46.1535" lon="6.34428">
        <ele>557.7</ele>
        <time>2020-04-15T13:00:44Z</time>
      </trkpt>
      <trkpt lat="46.15343" lon="6.34433">
        <ele>558.18</ele>
        <time>2020-04-15T13:00:45Z</time>
      </trkpt>
      <trkpt lat="46.15335" lon="6.34433">
        <ele>558.66</ele>
        <time>2020-04-15T13:00:46Z</time>
      </trkpt>
      <trkpt lat="46.15327" lon="6.34431">
        <ele>559.62</ele>
        <time>2020-04-15T13:00:47Z</time>
      </trkpt>
      <trkpt lat="46.15316" lon="6.34428">
        <ele>560.11</ele>
        <time>2020-04-15T13:00:48Z</time>
      </trkpt>
      <trkpt lat="46.15309" lon="6.34423">
        <ele>561.07</ele>
        <time>2020-04-15T13:00:49Z</time>
      </trkpt>
      <trkpt lat="46.153" lon="6.34417">
        <ele>562.03</ele>
        <time>2020-04-15T13:00:50Z</time>
      </trkpt>
      <trkpt lat="46.15292" lon="6.34411">
        <ele>562.99</ele>
        <time>2020-04-15T13:00:51Z</time>
      </trkpt>
      <trkpt lat="46.15283" lon="6.34404">
        <ele>563.47</ele>
        <time>2020-04-15T13:00:52Z</time>
      </trkpt>
      <trkpt lat="46.15272" lon="6.34389">
        <ele>565.39</ele>
        <time>2020-04-15T13:00:54Z</time>
      </trkpt>
      <trkpt lat="46.15268" lon="6.34383">
        <ele>565.87</ele>
        <time>2020-04-15T13:00:55Z</time>
      </trkpt>
      <trkpt lat="46.15263" lon="6.34381">
        <ele>566.35</ele>
        <time>2020-04-15T13:00:56Z</time>
      </trkpt>
      <trkpt lat="46.15258" lon="6.34381">
        <ele>566.83</ele>
        <time>2020-04-15T13:00:57Z</time>
      </trkpt>
      <trkpt lat="46.15251" lon="6.34371">
        <ele>567.32</ele>
        <time>2020-04-15T13:00:58Z</time>
      </trkpt>
      <trkpt lat="46.15245" lon="6.34362">
        <ele>567.8</ele>
        <time>2020-04-15T13:00:59Z</time>
      </trkpt>
      <trkpt lat="46.15237" lon="6.34351">
        <ele>567.8</ele>
        <time>2020-04-15T13:01:00Z</time>
      </trkpt>
      <trkpt lat="46.15229" lon="6.34339">
        <ele>567.8</ele>
        <time>2020-04-15T13:01:01Z</time>
      </trkpt>
      <trkpt lat="46.15222" lon="6.34326">
        <ele>567.8</ele>
        <time>2020-04-15T13:01:02Z</time>
      </trkpt>
      <trkpt lat="46.1521" lon="6.343">
        <ele>567.32</ele>
        <time>2020-04-15T13:01:05Z</time>
      </trkpt>
      <trkpt lat="46.15207" lon="6.34295">
        <ele>566.83</ele>
        <time>2020-04-15T13:01:06Z</time>
      </trkpt>
      <trkpt lat="46.15206" lon="6.34293">
        <ele>566.83</ele>
        <time>2020-04-15T13:01:07Z</time>
      </trkpt>
      <trkpt lat="46.15203" lon="6.34298">
        <ele>566.83</ele>
        <time>2020-04-15T13:01:08Z</time>
      </trkpt>
      <trkpt lat="46.152" lon="6.34302">
        <ele>566.83</ele>
        <time>2020-04-15T13:01:09Z</time>
      </trkpt>
      <trkpt lat="46.15195" lon="6.34308">
        <ele>566.83</ele>
        <time>2020-04-15T13:01:10Z</time>
      </trkpt>
      <trkpt lat="46.15188" lon="6.34317">
        <ele>566.35</ele>
        <time>2020-04-15T13:01:11Z</time>
      </trkpt>
      <trkpt lat="46.1517" lon="6.3434">
        <ele>565.87</ele>
        <time>2020-04-15T13:01:13Z</time>
      </trkpt>
      <trkpt lat="46.15158" lon="6.3436">
        <ele>565.87</ele>
        <time>2020-04-15T13:01:15Z</time>
      </trkpt>
      <trkpt lat="46.15147" lon="6.3438">
        <ele>564.43</ele>
        <time>2020-04-15T13:01:17Z</time>
      </trkpt>
      <trkpt lat="46.15114" lon="6.34434">
        <ele>563.95</ele>
        <time>2020-04-15T13:01:22Z</time>
      </trkpt>
      <trkpt lat="46.15108" lon="6.34448">
        <ele>564.43</ele>
        <time>2020-04-15T13:01:23Z</time>
      </trkpt>
      <trkpt lat="46.15059" lon="6.34555">
        <ele>568.76</ele>
        <time>2020-04-15T13:01:30Z</time>
      </trkpt>
      <trkpt lat="46.15049" lon="6.34568">
        <ele>569.72</ele>
        <time>2020-04-15T13:01:31Z</time>
      </trkpt>
      <trkpt lat="46.15039" lon="6.34579">
        <ele>570.2</ele>
        <time>2020-04-15T13:01:32Z</time>
      </trkpt>
      <trkpt lat="46.15019" lon="6.34602">
        <ele>572.6</ele>
        <time>2020-04-15T13:01:34Z</time>
      </trkpt>
      <trkpt lat="46.14989" lon="6.34638">
        <ele>575.97</ele>
        <time>2020-04-15T13:01:37Z</time>
      </trkpt>
      <trkpt lat="46.14979" lon="6.34649">
        <ele>576.93</ele>
        <time>2020-04-15T13:01:38Z</time>
      </trkpt>
      <trkpt lat="46.14969" lon="6.3466">
        <ele>577.89</ele>
        <time>2020-04-15T13:01:39Z</time>
      </trkpt>
      <trkpt lat="46.14958" lon="6.3467">
        <ele>578.85</ele>
        <time>2020-04-15T13:01:40Z</time>
      </trkpt>
      <trkpt lat="46.14946" lon="6.34678">
        <ele>579.81</ele>
        <time>2020-04-15T13:01:41Z</time>
      </trkpt>
      <trkpt lat="46.14935" lon="6.34686">
        <ele>581.25</ele>
        <time>2020-04-15T13:01:42Z</time>
      </trkpt>
      <trkpt lat="46.14924" lon="6.34693">
        <ele>582.7</ele>
        <time>2020-04-15T13:01:43Z</time>
      </trkpt>
      <trkpt lat="46.14913" lon="6.347">
        <ele>583.66</ele>
        <time>2020-04-15T13:01:44Z</time>
      </trkpt>
      <trkpt lat="46.14904" lon="6.34708">
        <ele>585.1</ele>
        <time>2020-04-15T13:01:45Z</time>
      </trkpt>
      <trkpt lat="46.14895" lon="6.3472">
        <ele>586.54</ele>
        <time>2020-04-15T13:01:46Z</time>
      </trkpt>
      <trkpt lat="46.14887" lon="6.34732">
        <ele>587.5</ele>
        <time>2020-04-15T13:01:47Z</time>
      </trkpt>
      <trkpt lat="46.14868" lon="6.34781">
        <ele>591.35</ele>
        <time>2020-04-15T13:01:50Z</time>
      </trkpt>
      <trkpt lat="46.14819" lon="6.34894">
        <ele>601.92</ele>
        <time>2020-04-15T13:01:57Z</time>
      </trkpt>
      <trkpt lat="46.14811" lon="6.34905">
        <ele>602.88</ele>
        <time>2020-04-15T13:01:58Z</time>
      </trkpt>
      <trkpt lat="46.14802" lon="6.34914">
        <ele>604.33</ele>
        <time>2020-04-15T13:01:59Z</time>
      </trkpt>
      <trkpt lat="46.14791" lon="6.34923">
        <ele>605.77</ele>
        <time>2020-04-15T13:02:00Z</time>
      </trkpt>
      <trkpt lat="46.1478" lon="6.34932">
        <ele>607.21</ele>
        <time>2020-04-15T13:02:01Z</time>
      </trkpt>
      <trkpt lat="46.14695" lon="6.35003">
        <ele>617.3</ele>
        <time>2020-04-15T13:02:09Z</time>
      </trkpt>
      <trkpt lat="46.1463" lon="6.35075">
        <ele>628.84</ele>
        <time>2020-04-15T13:02:17Z</time>
      </trkpt>
      <trkpt lat="46.14617" lon="6.35092">
        <ele>632.68</ele>
        <time>2020-04-15T13:02:20Z</time>
      </trkpt>
      <trkpt lat="46.14612" lon="6.35099">
        <ele>634.13</ele>
        <time>2020-04-15T13:02:21Z</time>
      </trkpt>
      <trkpt lat="46.14606" lon="6.35108">
        <ele>635.09</ele>
        <time>2020-04-15T13:02:22Z</time>
      </trkpt>
      <trkpt lat="46.14602" lon="6.3512">
        <ele>635.57</ele>
        <time>2020-04-15T13:02:23Z</time>
      </trkpt>
      <trkpt lat="46.14599" lon="6.35134">
        <ele>636.53</ele>
        <time>2020-04-15T13:02:24Z</time>
      </trkpt>
      <trkpt lat="46.1457" lon="6.35237">
        <ele>641.82</ele>
        <time>2020-04-15T13:02:32Z</time>
      </trkpt>
      <trkpt lat="46.14567" lon="6.35248">
        <ele>642.78</ele>
        <time>2020-04-15T13:02:33Z</time>
      </trkpt>
      <trkpt lat="46.14565" lon="6.3526">
        <ele>643.26</ele>
        <time>2020-04-15T13:02:34Z</time>
      </trkpt>
      <trkpt lat="46.14558" lon="6.35286">
        <ele>644.22</ele>
        <time>2020-04-15T13:02:36Z</time>
      </trkpt>
      <trkpt lat="46.14554" lon="6.35302">
        <ele>644.7</ele>
        <time>2020-04-15T13:02:37Z</time>
      </trkpt>
      <trkpt lat="46.14552" lon="6.3535">
        <ele>647.1</ele>
        <time>2020-04-15T13:02:40Z</time>
      </trkpt>
      <trkpt lat="46.1455" lon="6.35418">
        <ele>651.91</ele>
        <time>2020-04-15T13:02:46Z</time>
      </trkpt>
      <trkpt lat="46.14543" lon="6.35427">
        <ele>652.87</ele>
        <time>2020-04-15T13:02:47Z</time>
      </trkpt>
      <trkpt lat="46.14539" lon="6.35427">
        <ele>653.35</ele>
        <time>2020-04-15T13:02:48Z</time>
      </trkpt>
      <trkpt lat="46.14532" lon="6.35428">
        <ele>654.31</ele>
        <time>2020-04-15T13:02:49Z</time>
      </trkpt>
      <trkpt lat="46.14523" lon="6.35429">
        <ele>655.28</ele>
        <time>2020-04-15T13:02:50Z</time>
      </trkpt>
      <trkpt lat="46.14512" lon="6.3543">
        <ele>656.24</ele>
        <time>2020-04-15T13:02:51Z</time>
      </trkpt>
      <trkpt lat="46.14492" lon="6.35432">
        <ele>657.68</ele>
        <time>2020-04-15T13:02:53Z</time>
      </trkpt>
      <trkpt lat="46.14484" lon="6.35436">
        <ele>658.16</ele>
        <time>2020-04-15T13:02:54Z</time>
      </trkpt>
      <trkpt lat="46.14478" lon="6.35446">
        <ele>658.64</ele>
        <time>2020-04-15T13:02:55Z</time>
      </trkpt>
      <trkpt lat="46.14472" lon="6.35458">
        <ele>658.64</ele>
        <time>2020-04-15T13:02:56Z</time>
      </trkpt>
      <trkpt lat="46.14464" lon="6.35471">
        <ele>659.12</ele>
        <time>2020-04-15T13:02:57Z</time>
      </trkpt>
      <trkpt lat="46.14455" lon="6.35484">
        <ele>659.12</ele>
        <time>2020-04-15T13:02:58Z</time>
      </trkpt>
      <trkpt lat="46.14434" lon="6.35533">
        <ele>659.6</ele>
        <time>2020-04-15T13:03:02Z</time>
      </trkpt>
      <trkpt lat="46.1443" lon="6.35545">
        <ele>659.6</ele>
        <time>2020-04-15T13:03:03Z</time>
      </trkpt>
      <trkpt lat="46.14424" lon="6.35569">
        <ele>660.08</ele>
        <time>2020-04-15T13:03:05Z</time>
      </trkpt>
      <trkpt lat="46.14422" lon="6.35582">
        <ele>660.08</ele>
        <time>2020-04-15T13:03:06Z</time>
      </trkpt>
      <trkpt lat="46.14421" lon="6.35594">
        <ele>660.08</ele>
        <time>2020-04-15T13:03:07Z</time>
      </trkpt>
      <trkpt lat="46.14422" lon="6.35606">
        <ele>660.56</ele>
        <time>2020-04-15T13:03:08Z</time>
      </trkpt>
      <trkpt lat="46.14423" lon="6.35619">
        <ele>661.04</ele>
        <time>2020-04-15T13:03:09Z</time>
      </trkpt>
      <trkpt lat="46.14423" lon="6.35631">
        <ele>661.04</ele>
        <time>2020-04-15T13:03:10Z</time>
      </trkpt>
      <trkpt lat="46.14421" lon="6.3565">
        <ele>661.52</ele>
        <time>2020-04-15T13:03:12Z</time>
      </trkpt>
      <trkpt lat="46.14421" lon="6.35656">
        <ele>661.52</ele>
        <time>2020-04-15T13:03:13Z</time>
      </trkpt>
      <trkpt lat="46.14421" lon="6.3566">
        <ele>662.01</ele>
        <time>2020-04-15T13:03:14Z</time>
      </trkpt>
      <trkpt lat="46.1442" lon="6.35666">
        <ele>662.49</ele>
        <time>2020-04-15T13:03:15Z</time>
      </trkpt>
      <trkpt lat="46.1442" lon="6.35671">
        <ele>662.97</ele>
        <time>2020-04-15T13:03:16Z</time>
      </trkpt>
      <trkpt lat="46.14419" lon="6.35676">
        <ele>662.97</ele>
        <time>2020-04-15T13:03:17Z</time>
      </trkpt>
      <trkpt lat="46.14419" lon="6.35679">
        <ele>663.45</ele>
        <time>2020-04-15T13:03:18Z</time>
      </trkpt>
      <trkpt lat="46.14419" lon="6.35683">
        <ele>663.45</ele>
        <time>2020-04-15T13:03:27Z</time>
      </trkpt>
      <trkpt lat="46.14415" lon="6.35699">
        <ele>663.45</ele>
        <time>2020-04-15T13:03:30Z</time>
      </trkpt>
      <trkpt lat="46.14413" lon="6.35704">
        <ele>663.93</ele>
        <time>2020-04-15T13:03:31Z</time>
      </trkpt>
      <trkpt lat="46.14412" lon="6.35707">
        <ele>663.45</ele>
        <time>2020-04-15T13:03:32Z</time>
      </trkpt>
      <trkpt lat="46.14415" lon="6.35699">
        <ele>663.45</ele>
        <time>2020-04-15T13:03:35Z</time>
      </trkpt>
      <trkpt lat="46.14419" lon="6.35684">
        <ele>663.45</ele>
        <time>2020-04-15T13:03:36Z</time>
      </trkpt>
      <trkpt lat="46.14419" lon="6.35684">
        <ele>663.45</ele>
        <time>2020-04-15T13:03:37Z</time>
      </trkpt>
      <trkpt lat="46.1442" lon="6.35671">
        <ele>663.45</ele>
        <time>2020-04-15T13:03:38Z</time>
      </trkpt>
      <trkpt lat="46.14421" lon="6.35656">
        <ele>663.45</ele>
        <time>2020-04-15T13:03:39Z</time>
      </trkpt>
      <trkpt lat="46.14422" lon="6.35639">
        <ele>662.97</ele>
        <time>2020-04-15T13:03:40Z</time>
      </trkpt>
      <trkpt lat="46.14421" lon="6.35591">
        <ele>661.04</ele>
        <time>2020-04-15T13:03:43Z</time>
      </trkpt>
      <trkpt lat="46.14423" lon="6.35579">
        <ele>660.56</ele>
        <time>2020-04-15T13:03:44Z</time>
      </trkpt>
      <trkpt lat="46.14428" lon="6.35551">
        <ele>659.12</ele>
        <time>2020-04-15T13:03:46Z</time>
      </trkpt>
      <trkpt lat="46.14432" lon="6.35538">
        <ele>658.64</ele>
        <time>2020-04-15T13:03:47Z</time>
      </trkpt>
      <trkpt lat="46.14476" lon="6.3545">
        <ele>655.76</ele>
        <time>2020-04-15T13:03:55Z</time>
      </trkpt>
      <trkpt lat="46.1448" lon="6.35442">
        <ele>655.28</ele>
        <time>2020-04-15T13:03:57Z</time>
      </trkpt>
      <trkpt lat="46.1448" lon="6.35442">
        <ele>654.8</ele>
        <time>2020-04-15T13:04:01Z</time>
      </trkpt>
      <trkpt lat="46.14476" lon="6.35432">
        <ele>654.31</ele>
        <time>2020-04-15T13:04:02Z</time>
      </trkpt>
      <trkpt lat="46.14473" lon="6.35432">
        <ele>654.31</ele>
        <time>2020-04-15T13:04:03Z</time>
      </trkpt>
      <trkpt lat="46.14468" lon="6.35432">
        <ele>654.31</ele>
        <time>2020-04-15T13:04:04Z</time>
      </trkpt>
      <trkpt lat="46.1446" lon="6.35432">
        <ele>654.8</ele>
        <time>2020-04-15T13:04:05Z</time>
      </trkpt>
      <trkpt lat="46.1445" lon="6.35431">
        <ele>655.28</ele>
        <time>2020-04-15T13:04:06Z</time>
      </trkpt>
      <trkpt lat="46.14438" lon="6.35431">
        <ele>656.24</ele>
        <time>2020-04-15T13:04:07Z</time>
      </trkpt>
      <trkpt lat="46.14427" lon="6.35429">
        <ele>657.2</ele>
        <time>2020-04-15T13:04:08Z</time>
      </trkpt>
      <trkpt lat="46.14416" lon="6.35426">
        <ele>658.16</ele>
        <time>2020-04-15T13:04:09Z</time>
      </trkpt>
      <trkpt lat="46.14407" lon="6.35424">
        <ele>659.12</ele>
        <time>2020-04-15T13:04:10Z</time>
      </trkpt>
      <trkpt lat="46.14397" lon="6.35421">
        <ele>660.56</ele>
        <time>2020-04-15T13:04:11Z</time>
      </trkpt>
      <trkpt lat="46.14388" lon="6.35421">
        <ele>661.52</ele>
        <time>2020-04-15T13:04:12Z</time>
      </trkpt>
      <trkpt lat="46.14378" lon="6.35423">
        <ele>662.49</ele>
        <time>2020-04-15T13:04:13Z</time>
      </trkpt>
      <trkpt lat="46.14368" lon="6.35426">
        <ele>663.93</ele>
        <time>2020-04-15T13:04:14Z</time>
      </trkpt>
      <trkpt lat="46.14357" lon="6.35429">
        <ele>665.37</ele>
        <time>2020-04-15T13:04:15Z</time>
      </trkpt>
      <trkpt lat="46.14346" lon="6.35432">
        <ele>666.81</ele>
        <time>2020-04-15T13:04:16Z</time>
      </trkpt>
      <trkpt lat="46.14335" lon="6.35435">
        <ele>667.77</ele>
        <time>2020-04-15T13:04:17Z</time>
      </trkpt>
      <trkpt lat="46.14325" lon="6.35438">
        <ele>668.73</ele>
        <time>2020-04-15T13:04:18Z</time>
      </trkpt>
      <trkpt lat="46.14314" lon="6.35441">
        <ele>668.73</ele>
        <time>2020-04-15T13:04:19Z</time>
      </trkpt>
      <trkpt lat="46.1426" lon="6.35456">
        <ele>668.73</ele>
        <time>2020-04-15T13:04:24Z</time>
      </trkpt>
      <trkpt lat="46.14239" lon="6.35464">
        <ele>668.73</ele>
        <time>2020-04-15T13:04:26Z</time>
      </trkpt>
      <trkpt lat="46.14097" lon="6.35525">
        <ele>672.58</ele>
        <time>2020-04-15T13:04:38Z</time>
      </trkpt>
      <trkpt lat="46.13964" lon="6.35592">
        <ele>675.94</ele>
        <time>2020-04-15T13:04:49Z</time>
      </trkpt>
      <trkpt lat="46.13951" lon="6.35592">
        <ele>676.42</ele>
        <time>2020-04-15T13:04:50Z</time>
      </trkpt>
      <trkpt lat="46.13831" lon="6.356">
        <ele>681.71</ele>
        <time>2020-04-15T13:04:59Z</time>
      </trkpt>
      <trkpt lat="46.13818" lon="6.35604">
        <ele>682.19</ele>
        <time>2020-04-15T13:05:00Z</time>
      </trkpt>
      <trkpt lat="46.13806" lon="6.35611">
        <ele>683.15</ele>
        <time>2020-04-15T13:05:01Z</time>
      </trkpt>
      <trkpt lat="46.13793" lon="6.35619">
        <ele>684.12</ele>
        <time>2020-04-15T13:05:02Z</time>
      </trkpt>
      <trkpt lat="46.13779" lon="6.35628">
        <ele>685.08</ele>
        <time>2020-04-15T13:05:03Z</time>
      </trkpt>
      <trkpt lat="46.13764" lon="6.35636">
        <ele>685.56</ele>
        <time>2020-04-15T13:05:04Z</time>
      </trkpt>
      <trkpt lat="46.13705" lon="6.35674">
        <ele>688.44</ele>
        <time>2020-04-15T13:05:08Z</time>
      </trkpt>
      <trkpt lat="46.13687" lon="6.35679">
        <ele>688.92</ele>
        <time>2020-04-15T13:05:09Z</time>
      </trkpt>
      <trkpt lat="46.13667" lon="6.35684">
        <ele>689.4</ele>
        <time>2020-04-15T13:05:10Z</time>
      </trkpt>
      <trkpt lat="46.1363" lon="6.35694">
        <ele>690.36</ele>
        <time>2020-04-15T13:05:12Z</time>
      </trkpt>
      <trkpt lat="46.13612" lon="6.35703">
        <ele>690.84</ele>
        <time>2020-04-15T13:05:13Z</time>
      </trkpt>
      <trkpt lat="46.13595" lon="6.35717">
        <ele>691.33</ele>
        <time>2020-04-15T13:05:14Z</time>
      </trkpt>
      <trkpt lat="46.13576" lon="6.3573">
        <ele>691.81</ele>
        <time>2020-04-15T13:05:15Z</time>
      </trkpt>
      <trkpt lat="46.13556" lon="6.35742">
        <ele>691.81</ele>
        <time>2020-04-15T13:05:16Z</time>
      </trkpt>
      <trkpt lat="46.13534" lon="6.35751">
        <ele>692.77</ele>
        <time>2020-04-15T13:05:17Z</time>
      </trkpt>
      <trkpt lat="46.13513" lon="6.3576">
        <ele>693.25</ele>
        <time>2020-04-15T13:05:18Z</time>
      </trkpt>
      <trkpt lat="46.13426" lon="6.35795">
        <ele>695.17</ele>
        <time>2020-04-15T13:05:22Z</time>
      </trkpt>
      <trkpt lat="46.13404" lon="6.35797">
        <ele>695.65</ele>
        <time>2020-04-15T13:05:23Z</time>
      </trkpt>
      <trkpt lat="46.13293" lon="6.35809">
        <ele>694.69</ele>
        <time>2020-04-15T13:05:29Z</time>
      </trkpt>
      <trkpt lat="46.13258" lon="6.35821">
        <ele>694.21</ele>
        <time>2020-04-15T13:05:31Z</time>
      </trkpt>
      <trkpt lat="46.13145" lon="6.35859">
        <ele>692.77</ele>
        <time>2020-04-15T13:05:36Z</time>
      </trkpt>
      <trkpt lat="46.13105" lon="6.35877">
        <ele>692.77</ele>
        <time>2020-04-15T13:05:38Z</time>
      </trkpt>
      <trkpt lat="46.13084" lon="6.35894">
        <ele>692.77</ele>
        <time>2020-04-15T13:05:39Z</time>
      </trkpt>
      <trkpt lat="46.13062" lon="6.35912">
        <ele>692.29</ele>
        <time>2020-04-15T13:05:40Z</time>
      </trkpt>
      <trkpt lat="46.12921" lon="6.36032">
        <ele>694.69</ele>
        <time>2020-04-15T13:05:47Z</time>
      </trkpt>
      <trkpt lat="46.12906" lon="6.36053">
        <ele>694.69</ele>
        <time>2020-04-15T13:05:48Z</time>
      </trkpt>
      <trkpt lat="46.12892" lon="6.36076">
        <ele>695.17</ele>
        <time>2020-04-15T13:05:49Z</time>
      </trkpt>
      <trkpt lat="46.1281" lon="6.36208">
        <ele>695.17</ele>
        <time>2020-04-15T13:05:56Z</time>
      </trkpt>
      <trkpt lat="46.12802" lon="6.36216">
        <ele>695.17</ele>
        <time>2020-04-15T13:05:57Z</time>
      </trkpt>
      <trkpt lat="46.12797" lon="6.36223">
        <ele>695.17</ele>
        <time>2020-04-15T13:05:58Z</time>
      </trkpt>
      <trkpt lat="46.12792" lon="6.36228">
        <ele>695.17</ele>
        <time>2020-04-15T13:05:59Z</time>
      </trkpt>
      <trkpt lat="46.12785" lon="6.36225">
        <ele>694.69</ele>
        <time>2020-04-15T13:06:00Z</time>
      </trkpt>
      <trkpt lat="46.12778" lon="6.36218">
        <ele>694.69</ele>
        <time>2020-04-15T13:06:01Z</time>
      </trkpt>
      <trkpt lat="46.12767" lon="6.36208">
        <ele>694.69</ele>
        <time>2020-04-15T13:06:02Z</time>
      </trkpt>
      <trkpt lat="46.12735" lon="6.36179">
        <ele>694.21</ele>
        <time>2020-04-15T13:06:04Z</time>
      </trkpt>
      <trkpt lat="46.12715" lon="6.36166">
        <ele>693.73</ele>
        <time>2020-04-15T13:06:05Z</time>
      </trkpt>
      <trkpt lat="46.12693" lon="6.36156">
        <ele>692.77</ele>
        <time>2020-04-15T13:06:06Z</time>
      </trkpt>
      <trkpt lat="46.12672" lon="6.3615">
        <ele>691.81</ele>
        <time>2020-04-15T13:06:07Z</time>
      </trkpt>
      <trkpt lat="46.12651" lon="6.36146">
        <ele>690.84</ele>
        <time>2020-04-15T13:06:08Z</time>
      </trkpt>
      <trkpt lat="46.12632" lon="6.36144">
        <ele>689.88</ele>
        <time>2020-04-15T13:06:09Z</time>
      </trkpt>
      <trkpt lat="46.12479" lon="6.36137">
        <ele>680.75</ele>
        <time>2020-04-15T13:06:18Z</time>
      </trkpt>
      <trkpt lat="46.12391" lon="6.36125">
        <ele>673.06</ele>
        <time>2020-04-15T13:06:26Z</time>
      </trkpt>
      <trkpt lat="46.12376" lon="6.36119">
        <ele>671.14</ele>
        <time>2020-04-15T13:06:29Z</time>
      </trkpt>
      <trkpt lat="46.12373" lon="6.36117">
        <ele>670.66</ele>
        <time>2020-04-15T13:06:30Z</time>
      </trkpt>
      <trkpt lat="46.12371" lon="6.36116">
        <ele>670.18</ele>
        <time>2020-04-15T13:06:31Z</time>
      </trkpt>
      <trkpt lat="46.12375" lon="6.36097">
        <ele>668.73</ele>
        <time>2020-04-15T13:06:34Z</time>
      </trkpt>
      <trkpt lat="46.1238" lon="6.36121">
        <ele>667.29</ele>
        <time>2020-04-15T13:06:39Z</time>
      </trkpt>
      <trkpt lat="46.1238" lon="6.36121">
        <ele>666.81</ele>
        <time>2020-04-15T13:06:40Z</time>
      </trkpt>
      <trkpt lat="46.1238" lon="6.36121">
        <ele>666.33</ele>
        <time>2020-04-15T13:06:41Z</time>
      </trkpt>
      <trkpt lat="46.1238" lon="6.36121">
        <ele>665.85</ele>
        <time>2020-04-15T13:06:52Z</time>
      </trkpt>
      <trkpt lat="46.12382" lon="6.36114">
        <ele>700.46</ele>
        <time>2020-04-15T14:20:28Z</time>
      </trkpt>
      <trkpt lat="46.12387" lon="6.36098">
        <ele>670.66</ele>
        <time>2020-04-15T14:20:44Z</time>
      </trkpt>
      <trkpt lat="46.1238" lon="6.36121">
        <ele>670.66</ele>
        <time>2020-04-15T14:20:50Z</time>
      </trkpt>
      <trkpt lat="46.12374" lon="6.36117">
        <ele>670.66</ele>
        <time>2020-04-15T14:20:51Z</time>
      </trkpt>
      <trkpt lat="46.1238" lon="6.36121">
        <ele>671.14</ele>
        <time>2020-04-15T14:20:54Z</time>
      </trkpt>
      <trkpt lat="46.12384" lon="6.36123">
        <ele>672.58</ele>
        <time>2020-04-15T14:21:00Z</time>
      </trkpt>
      <trkpt lat="46.12391" lon="6.36125">
        <ele>673.06</ele>
        <time>2020-04-15T14:21:02Z</time>
      </trkpt>
      <trkpt lat="46.12498" lon="6.36139">
        <ele>681.71</ele>
        <time>2020-04-15T14:21:10Z</time>
      </trkpt>
      <trkpt lat="46.12511" lon="6.36141">
        <ele>682.19</ele>
        <time>2020-04-15T14:21:11Z</time>
      </trkpt>
      <trkpt lat="46.1254" lon="6.36142">
        <ele>683.63</ele>
        <time>2020-04-15T14:21:13Z</time>
      </trkpt>
      <trkpt lat="46.12675" lon="6.36151">
        <ele>687.96</ele>
        <time>2020-04-15T14:21:21Z</time>
      </trkpt>
      <trkpt lat="46.1271" lon="6.36163">
        <ele>689.4</ele>
        <time>2020-04-15T14:21:23Z</time>
      </trkpt>
      <trkpt lat="46.12724" lon="6.36172">
        <ele>690.36</ele>
        <time>2020-04-15T14:21:24Z</time>
      </trkpt>
      <trkpt lat="46.12737" lon="6.36181">
        <ele>690.84</ele>
        <time>2020-04-15T14:21:25Z</time>
      </trkpt>
      <trkpt lat="46.1275" lon="6.3619">
        <ele>691.81</ele>
        <time>2020-04-15T14:21:26Z</time>
      </trkpt>
      <trkpt lat="46.1276" lon="6.36201">
        <ele>692.29</ele>
        <time>2020-04-15T14:21:27Z</time>
      </trkpt>
      <trkpt lat="46.12782" lon="6.36223">
        <ele>695.65</ele>
        <time>2020-04-15T14:21:32Z</time>
      </trkpt>
      <trkpt lat="46.1279" lon="6.36231">
        <ele>697.09</ele>
        <time>2020-04-15T14:21:35Z</time>
      </trkpt>
      <trkpt lat="46.12793" lon="6.36228">
        <ele>698.05</ele>
        <time>2020-04-15T14:21:36Z</time>
      </trkpt>
      <trkpt lat="46.12798" lon="6.36221">
        <ele>699.02</ele>
        <time>2020-04-15T14:21:37Z</time>
      </trkpt>
      <trkpt lat="46.12848" lon="6.36143">
        <ele>701.42</ele>
        <time>2020-04-15T14:21:42Z</time>
      </trkpt>
      <trkpt lat="46.12923" lon="6.36029">
        <ele>702.38</ele>
        <time>2020-04-15T14:21:49Z</time>
      </trkpt>
      <trkpt lat="46.13072" lon="6.35904">
        <ele>698.53</ele>
        <time>2020-04-15T14:21:57Z</time>
      </trkpt>
      <trkpt lat="46.1309" lon="6.35889">
        <ele>696.61</ele>
        <time>2020-04-15T14:21:59Z</time>
      </trkpt>
      <trkpt lat="46.13108" lon="6.35876">
        <ele>695.17</ele>
        <time>2020-04-15T14:22:00Z</time>
      </trkpt>
      <trkpt lat="46.133" lon="6.35808">
        <ele>689.4</ele>
        <time>2020-04-15T14:22:08Z</time>
      </trkpt>
      <trkpt lat="46.13414" lon="6.35796">
        <ele>690.36</ele>
        <time>2020-04-15T14:22:13Z</time>
      </trkpt>
      <trkpt lat="46.13435" lon="6.35793">
        <ele>690.84</ele>
        <time>2020-04-15T14:22:14Z</time>
      </trkpt>
      <trkpt lat="46.13547" lon="6.35746">
        <ele>691.33</ele>
        <time>2020-04-15T14:22:20Z</time>
      </trkpt>
      <trkpt lat="46.13565" lon="6.35738">
        <ele>690.84</ele>
        <time>2020-04-15T14:22:21Z</time>
      </trkpt>
      <trkpt lat="46.13581" lon="6.35727">
        <ele>690.36</ele>
        <time>2020-04-15T14:22:22Z</time>
      </trkpt>
      <trkpt lat="46.13596" lon="6.35716">
        <ele>690.36</ele>
        <time>2020-04-15T14:22:23Z</time>
      </trkpt>
      <trkpt lat="46.1361" lon="6.35705">
        <ele>689.88</ele>
        <time>2020-04-15T14:22:24Z</time>
      </trkpt>
      <trkpt lat="46.13625" lon="6.35695">
        <ele>689.4</ele>
        <time>2020-04-15T14:22:25Z</time>
      </trkpt>
      <trkpt lat="46.13642" lon="6.35691">
        <ele>688.92</ele>
        <time>2020-04-15T14:22:26Z</time>
      </trkpt>
      <trkpt lat="46.13659" lon="6.35686">
        <ele>688.44</ele>
        <time>2020-04-15T14:22:27Z</time>
      </trkpt>
      <trkpt lat="46.13707" lon="6.35673">
        <ele>687</ele>
        <time>2020-04-15T14:22:30Z</time>
      </trkpt>
      <trkpt lat="46.13722" lon="6.35667">
        <ele>686.52</ele>
        <time>2020-04-15T14:22:31Z</time>
      </trkpt>
      <trkpt lat="46.138" lon="6.35615">
        <ele>682.67</ele>
        <time>2020-04-15T14:22:38Z</time>
      </trkpt>
      <trkpt lat="46.13811" lon="6.35608">
        <ele>682.67</ele>
        <time>2020-04-15T14:22:39Z</time>
      </trkpt>
      <trkpt lat="46.13822" lon="6.35602">
        <ele>682.67</ele>
        <time>2020-04-15T14:22:40Z</time>
      </trkpt>
      <trkpt lat="46.13835" lon="6.35599">
        <ele>682.19</ele>
        <time>2020-04-15T14:22:41Z</time>
      </trkpt>
      <trkpt lat="46.13849" lon="6.35598">
        <ele>681.71</ele>
        <time>2020-04-15T14:22:42Z</time>
      </trkpt>
      <trkpt lat="46.13863" lon="6.35598">
        <ele>681.23</ele>
        <time>2020-04-15T14:22:43Z</time>
      </trkpt>
      <trkpt lat="46.13968" lon="6.35591">
        <ele>677.39</ele>
        <time>2020-04-15T14:22:51Z</time>
      </trkpt>
      <trkpt lat="46.14068" lon="6.35541">
        <ele>671.62</ele>
        <time>2020-04-15T14:23:00Z</time>
      </trkpt>
      <trkpt lat="46.14203" lon="6.35476">
        <ele>666.81</ele>
        <time>2020-04-15T14:23:09Z</time>
      </trkpt>
      <trkpt lat="46.14215" lon="6.35472">
        <ele>666.33</ele>
        <time>2020-04-15T14:23:10Z</time>
      </trkpt>
      <trkpt lat="46.14227" lon="6.35468">
        <ele>665.85</ele>
        <time>2020-04-15T14:23:11Z</time>
      </trkpt>
      <trkpt lat="46.14301" lon="6.35445">
        <ele>662.49</ele>
        <time>2020-04-15T14:23:18Z</time>
      </trkpt>
      <trkpt lat="46.14357" lon="6.35429">
        <ele>661.52</ele>
        <time>2020-04-15T14:23:23Z</time>
      </trkpt>
      <trkpt lat="46.14396" lon="6.35421">
        <ele>661.04</ele>
        <time>2020-04-15T14:23:27Z</time>
      </trkpt>
      <trkpt lat="46.14406" lon="6.35424">
        <ele>661.04</ele>
        <time>2020-04-15T14:23:28Z</time>
      </trkpt>
      <trkpt lat="46.14445" lon="6.35431">
        <ele>660.08</ele>
        <time>2020-04-15T14:23:33Z</time>
      </trkpt>
      <trkpt lat="46.14461" lon="6.35432">
        <ele>659.6</ele>
        <time>2020-04-15T14:23:35Z</time>
      </trkpt>
      <trkpt lat="46.14473" lon="6.35432">
        <ele>659.6</ele>
        <time>2020-04-15T14:23:36Z</time>
      </trkpt>
      <trkpt lat="46.14478" lon="6.35432">
        <ele>659.12</ele>
        <time>2020-04-15T14:23:37Z</time>
      </trkpt>
      <trkpt lat="46.14529" lon="6.35428">
        <ele>657.2</ele>
        <time>2020-04-15T14:23:43Z</time>
      </trkpt>
      <trkpt lat="46.14543" lon="6.35427">
        <ele>656.24</ele>
        <time>2020-04-15T14:23:45Z</time>
      </trkpt>
      <trkpt lat="46.1455" lon="6.35426">
        <ele>655.28</ele>
        <time>2020-04-15T14:23:47Z</time>
      </trkpt>
      <trkpt lat="46.1455" lon="6.35421">
        <ele>654.8</ele>
        <time>2020-04-15T14:23:48Z</time>
      </trkpt>
      <trkpt lat="46.1455" lon="6.35413">
        <ele>654.31</ele>
        <time>2020-04-15T14:23:49Z</time>
      </trkpt>
      <trkpt lat="46.14551" lon="6.35401">
        <ele>653.83</ele>
        <time>2020-04-15T14:23:50Z</time>
      </trkpt>
      <trkpt lat="46.14551" lon="6.35376">
        <ele>652.39</ele>
        <time>2020-04-15T14:23:52Z</time>
      </trkpt>
      <trkpt lat="46.14561" lon="6.35276">
        <ele>647.59</ele>
        <time>2020-04-15T14:23:58Z</time>
      </trkpt>
      <trkpt lat="46.14596" lon="6.35144">
        <ele>640.38</ele>
        <time>2020-04-15T14:24:07Z</time>
      </trkpt>
      <trkpt lat="46.14605" lon="6.3511">
        <ele>637.97</ele>
        <time>2020-04-15T14:24:10Z</time>
      </trkpt>
      <trkpt lat="46.14611" lon="6.351">
        <ele>637.49</ele>
        <time>2020-04-15T14:24:11Z</time>
      </trkpt>
      <trkpt lat="46.14619" lon="6.3509">
        <ele>637.01</ele>
        <time>2020-04-15T14:24:12Z</time>
      </trkpt>
      <trkpt lat="46.14712" lon="6.34989">
        <ele>626.44</ele>
        <time>2020-04-15T14:24:22Z</time>
      </trkpt>
      <trkpt lat="46.14809" lon="6.34906">
        <ele>611.54</ele>
        <time>2020-04-15T14:24:32Z</time>
      </trkpt>
      <trkpt lat="46.14819" lon="6.34894">
        <ele>610.57</ele>
        <time>2020-04-15T14:24:33Z</time>
      </trkpt>
      <trkpt lat="46.14877" lon="6.34755">
        <ele>599.52</ele>
        <time>2020-04-15T14:24:41Z</time>
      </trkpt>
      <trkpt lat="46.14893" lon="6.34723">
        <ele>598.08</ele>
        <time>2020-04-15T14:24:42Z</time>
      </trkpt>
      <trkpt lat="46.14902" lon="6.3471">
        <ele>595.19</ele>
        <time>2020-04-15T14:24:44Z</time>
      </trkpt>
      <trkpt lat="46.14924" lon="6.34693">
        <ele>593.75</ele>
        <time>2020-04-15T14:24:45Z</time>
      </trkpt>
      <trkpt lat="46.14961" lon="6.34669">
        <ele>586.54</ele>
        <time>2020-04-15T14:24:49Z</time>
      </trkpt>
      <trkpt lat="46.14972" lon="6.34657">
        <ele>584.62</ele>
        <time>2020-04-15T14:24:50Z</time>
      </trkpt>
      <trkpt lat="46.15015" lon="6.34607">
        <ele>578.85</ele>
        <time>2020-04-15T14:24:54Z</time>
      </trkpt>
      <trkpt lat="46.15057" lon="6.34558">
        <ele>574.53</ele>
        <time>2020-04-15T14:24:58Z</time>
      </trkpt>
      <trkpt lat="46.15073" lon="6.34528">
        <ele>572.12</ele>
        <time>2020-04-15T14:25:00Z</time>
      </trkpt>
      <trkpt lat="46.15139" lon="6.34393">
        <ele>562.51</ele>
        <time>2020-04-15T14:25:09Z</time>
      </trkpt>
      <trkpt lat="46.15146" lon="6.34381">
        <ele>561.07</ele>
        <time>2020-04-15T14:25:10Z</time>
      </trkpt>
      <trkpt lat="46.15153" lon="6.3437">
        <ele>559.62</ele>
        <time>2020-04-15T14:25:11Z</time>
      </trkpt>
      <trkpt lat="46.15179" lon="6.34329">
        <ele>555.78</ele>
        <time>2020-04-15T14:25:15Z</time>
      </trkpt>
      <trkpt lat="46.15202" lon="6.34299">
        <ele>554.82</ele>
        <time>2020-04-15T14:25:21Z</time>
      </trkpt>
      <trkpt lat="46.15207" lon="6.34294">
        <ele>554.34</ele>
        <time>2020-04-15T14:25:23Z</time>
      </trkpt>
      <trkpt lat="46.15208" lon="6.34297">
        <ele>554.34</ele>
        <time>2020-04-15T14:25:24Z</time>
      </trkpt>
      <trkpt lat="46.15213" lon="6.34308">
        <ele>554.34</ele>
        <time>2020-04-15T14:25:25Z</time>
      </trkpt>
      <trkpt lat="46.15244" lon="6.34361">
        <ele>557.22</ele>
        <time>2020-04-15T14:25:31Z</time>
      </trkpt>
      <trkpt lat="46.15251" lon="6.3437">
        <ele>558.66</ele>
        <time>2020-04-15T14:25:33Z</time>
      </trkpt>
      <trkpt lat="46.15254" lon="6.34375">
        <ele>559.62</ele>
        <time>2020-04-15T14:25:34Z</time>
      </trkpt>
      <trkpt lat="46.15258" lon="6.34381">
        <ele>560.11</ele>
        <time>2020-04-15T14:25:35Z</time>
      </trkpt>
      <trkpt lat="46.15269" lon="6.34385">
        <ele>561.55</ele>
        <time>2020-04-15T14:25:37Z</time>
      </trkpt>
      <trkpt lat="46.15324" lon="6.3443">
        <ele>563.95</ele>
        <time>2020-04-15T14:25:42Z</time>
      </trkpt>
      <trkpt lat="46.15333" lon="6.34433">
        <ele>563.47</ele>
        <time>2020-04-15T14:25:43Z</time>
      </trkpt>
      <trkpt lat="46.15342" lon="6.34435">
        <ele>562.99</ele>
        <time>2020-04-15T14:25:44Z</time>
      </trkpt>
      <trkpt lat="46.15348" lon="6.3443">
        <ele>562.51</ele>
        <time>2020-04-15T14:25:45Z</time>
      </trkpt>
      <trkpt lat="46.15354" lon="6.34425">
        <ele>561.55</ele>
        <time>2020-04-15T14:25:46Z</time>
      </trkpt>
      <trkpt lat="46.1536" lon="6.3442">
        <ele>560.59</ele>
        <time>2020-04-15T14:25:47Z</time>
      </trkpt>
      <trkpt lat="46.15366" lon="6.34415">
        <ele>557.7</ele>
        <time>2020-04-15T14:25:53Z</time>
      </trkpt>
      <trkpt lat="46.15371" lon="6.3441">
        <ele>555.78</ele>
        <time>2020-04-15T14:25:56Z</time>
      </trkpt>
      <trkpt lat="46.15368" lon="6.34402">
        <ele>554.34</ele>
        <time>2020-04-15T14:25:58Z</time>
      </trkpt>
      <trkpt lat="46.15357" lon="6.34374">
        <ele>553.38</ele>
        <time>2020-04-15T14:25:59Z</time>
      </trkpt>
      <trkpt lat="46.15311" lon="6.34256">
        <ele>550.01</ele>
        <time>2020-04-15T14:26:04Z</time>
      </trkpt>
      <trkpt lat="46.15292" lon="6.34205">
        <ele>549.05</ele>
        <time>2020-04-15T14:26:06Z</time>
      </trkpt>
      <trkpt lat="46.15288" lon="6.34178">
        <ele>548.09</ele>
        <time>2020-04-15T14:26:07Z</time>
      </trkpt>
      <trkpt lat="46.15286" lon="6.3415">
        <ele>547.61</ele>
        <time>2020-04-15T14:26:08Z</time>
      </trkpt>
      <trkpt lat="46.15287" lon="6.34122">
        <ele>546.65</ele>
        <time>2020-04-15T14:26:09Z</time>
      </trkpt>
      <trkpt lat="46.15288" lon="6.34092">
        <ele>545.2</ele>
        <time>2020-04-15T14:26:10Z</time>
      </trkpt>
      <trkpt lat="46.1529" lon="6.34061">
        <ele>543.76</ele>
        <time>2020-04-15T14:26:11Z</time>
      </trkpt>
      <trkpt lat="46.15287" lon="6.34031">
        <ele>541.84</ele>
        <time>2020-04-15T14:26:13Z</time>
      </trkpt>
      <trkpt lat="46.15228" lon="6.3376">
        <ele>541.36</ele>
        <time>2020-04-15T14:26:20Z</time>
      </trkpt>
      <trkpt lat="46.15214" lon="6.33696">
        <ele>540.88</ele>
        <time>2020-04-15T14:26:22Z</time>
      </trkpt>
      <trkpt lat="46.15204" lon="6.33667">
        <ele>540.88</ele>
        <time>2020-04-15T14:26:23Z</time>
      </trkpt>
      <trkpt lat="46.15179" lon="6.33584">
        <ele>539.92</ele>
        <time>2020-04-15T14:26:26Z</time>
      </trkpt>
      <trkpt lat="46.15177" lon="6.33556">
        <ele>539.44</ele>
        <time>2020-04-15T14:26:27Z</time>
      </trkpt>
      <trkpt lat="46.15179" lon="6.33528">
        <ele>538.48</ele>
        <time>2020-04-15T14:26:28Z</time>
      </trkpt>
      <trkpt lat="46.15183" lon="6.335">
        <ele>537.99</ele>
        <time>2020-04-15T14:26:29Z</time>
      </trkpt>
      <trkpt lat="46.15191" lon="6.33474">
        <ele>537.51</ele>
        <time>2020-04-15T14:26:30Z</time>
      </trkpt>
      <trkpt lat="46.15201" lon="6.33446">
        <ele>537.03</ele>
        <time>2020-04-15T14:26:31Z</time>
      </trkpt>
      <trkpt lat="46.15225" lon="6.33368">
        <ele>536.55</ele>
        <time>2020-04-15T14:26:34Z</time>
      </trkpt>
      <trkpt lat="46.1523" lon="6.33342">
        <ele>537.03</ele>
        <time>2020-04-15T14:26:35Z</time>
      </trkpt>
      <trkpt lat="46.1523" lon="6.33317">
        <ele>537.03</ele>
        <time>2020-04-15T14:26:36Z</time>
      </trkpt>
      <trkpt lat="46.15225" lon="6.33292">
        <ele>537.03</ele>
        <time>2020-04-15T14:26:37Z</time>
      </trkpt>
      <trkpt lat="46.15218" lon="6.33269">
        <ele>537.03</ele>
        <time>2020-04-15T14:26:38Z</time>
      </trkpt>
      <trkpt lat="46.15206" lon="6.33248">
        <ele>537.03</ele>
        <time>2020-04-15T14:26:39Z</time>
      </trkpt>
      <trkpt lat="46.15191" lon="6.3322">
        <ele>537.03</ele>
        <time>2020-04-15T14:26:40Z</time>
      </trkpt>
      <trkpt lat="46.15177" lon="6.33205">
        <ele>536.55</ele>
        <time>2020-04-15T14:26:41Z</time>
      </trkpt>
      <trkpt lat="46.15158" lon="6.33185">
        <ele>536.07</ele>
        <time>2020-04-15T14:26:42Z</time>
      </trkpt>
      <trkpt lat="46.1512" lon="6.33137">
        <ele>533.67</ele>
        <time>2020-04-15T14:26:44Z</time>
      </trkpt>
      <trkpt lat="46.15101" lon="6.33109">
        <ele>532.23</ele>
        <time>2020-04-15T14:26:45Z</time>
      </trkpt>
      <trkpt lat="46.15012" lon="6.32942">
        <ele>522.61</ele>
        <time>2020-04-15T14:26:51Z</time>
      </trkpt>
      <trkpt lat="46.15002" lon="6.32912">
        <ele>520.69</ele>
        <time>2020-04-15T14:26:52Z</time>
      </trkpt>
      <trkpt lat="46.14996" lon="6.32881">
        <ele>519.25</ele>
        <time>2020-04-15T14:26:53Z</time>
      </trkpt>
      <trkpt lat="46.14997" lon="6.32848">
        <ele>517.33</ele>
        <time>2020-04-15T14:26:54Z</time>
      </trkpt>
      <trkpt lat="46.14998" lon="6.32815">
        <ele>515.4</ele>
        <time>2020-04-15T14:26:55Z</time>
      </trkpt>
      <trkpt lat="46.15004" lon="6.32782">
        <ele>513.48</ele>
        <time>2020-04-15T14:26:56Z</time>
      </trkpt>
      <trkpt lat="46.15009" lon="6.32749">
        <ele>511.56</ele>
        <time>2020-04-15T14:26:57Z</time>
      </trkpt>
      <trkpt lat="46.1502" lon="6.32658">
        <ele>506.27</ele>
        <time>2020-04-15T14:27:00Z</time>
      </trkpt>
      <trkpt lat="46.15021" lon="6.32631">
        <ele>504.83</ele>
        <time>2020-04-15T14:27:01Z</time>
      </trkpt>
      <trkpt lat="46.15019" lon="6.32606">
        <ele>503.39</ele>
        <time>2020-04-15T14:27:02Z</time>
      </trkpt>
      <trkpt lat="46.15014" lon="6.32583">
        <ele>502.43</ele>
        <time>2020-04-15T14:27:03Z</time>
      </trkpt>
      <trkpt lat="46.1501" lon="6.3256">
        <ele>500.98</ele>
        <time>2020-04-15T14:27:04Z</time>
      </trkpt>
      <trkpt lat="46.15006" lon="6.32537">
        <ele>499.54</ele>
        <time>2020-04-15T14:27:05Z</time>
      </trkpt>
      <trkpt lat="46.1497" lon="6.32388">
        <ele>493.77</ele>
        <time>2020-04-15T14:27:13Z</time>
      </trkpt>
      <trkpt lat="46.1496" lon="6.3235">
        <ele>492.81</ele>
        <time>2020-04-15T14:27:15Z</time>
      </trkpt>
      <trkpt lat="46.14957" lon="6.3233">
        <ele>492.33</ele>
        <time>2020-04-15T14:27:16Z</time>
      </trkpt>
      <trkpt lat="46.14957" lon="6.3231">
        <ele>491.37</ele>
        <time>2020-04-15T14:27:17Z</time>
      </trkpt>
      <trkpt lat="46.14957" lon="6.32292">
        <ele>490.89</ele>
        <time>2020-04-15T14:27:18Z</time>
      </trkpt>
      <trkpt lat="46.14957" lon="6.32276">
        <ele>490.41</ele>
        <time>2020-04-15T14:27:19Z</time>
      </trkpt>
      <trkpt lat="46.14957" lon="6.32161">
        <ele>488.49</ele>
        <time>2020-04-15T14:27:26Z</time>
      </trkpt>
      <trkpt lat="46.14957" lon="6.32148">
        <ele>488.01</ele>
        <time>2020-04-15T14:27:27Z</time>
      </trkpt>
      <trkpt lat="46.14957" lon="6.32136">
        <ele>488.01</ele>
        <time>2020-04-15T14:27:28Z</time>
      </trkpt>
      <trkpt lat="46.14957" lon="6.32125">
        <ele>487.53</ele>
        <time>2020-04-15T14:27:29Z</time>
      </trkpt>
      <trkpt lat="46.1497" lon="6.32107">
        <ele>487.05</ele>
        <time>2020-04-15T14:27:30Z</time>
      </trkpt>
      <trkpt lat="46.14972" lon="6.32103">
        <ele>486.56</ele>
        <time>2020-04-15T14:27:31Z</time>
      </trkpt>
      <trkpt lat="46.14976" lon="6.32087">
        <ele>486.56</ele>
        <time>2020-04-15T14:27:32Z</time>
      </trkpt>
      <trkpt lat="46.14971" lon="6.32076">
        <ele>486.56</ele>
        <time>2020-04-15T14:27:33Z</time>
      </trkpt>
      <trkpt lat="46.14968" lon="6.32062">
        <ele>486.56</ele>
        <time>2020-04-15T14:27:34Z</time>
      </trkpt>
      <trkpt lat="46.14967" lon="6.32043">
        <ele>486.08</ele>
        <time>2020-04-15T14:27:35Z</time>
      </trkpt>
      <trkpt lat="46.14967" lon="6.32021">
        <ele>485.6</ele>
        <time>2020-04-15T14:27:36Z</time>
      </trkpt>
      <trkpt lat="46.14966" lon="6.31998">
        <ele>485.12</ele>
        <time>2020-04-15T14:27:37Z</time>
      </trkpt>
      <trkpt lat="46.14965" lon="6.31907">
        <ele>480.32</ele>
        <time>2020-04-15T14:27:41Z</time>
      </trkpt>
      <trkpt lat="46.14962" lon="6.31889">
        <ele>478.87</ele>
        <time>2020-04-15T14:27:42Z</time>
      </trkpt>
      <trkpt lat="46.14953" lon="6.31872">
        <ele>477.91</ele>
        <time>2020-04-15T14:27:43Z</time>
      </trkpt>
      <trkpt lat="46.14941" lon="6.31861">
        <ele>476.95</ele>
        <time>2020-04-15T14:27:44Z</time>
      </trkpt>
      <trkpt lat="46.14925" lon="6.31857">
        <ele>476.47</ele>
        <time>2020-04-15T14:27:45Z</time>
      </trkpt>
      <trkpt lat="46.14909" lon="6.31853">
        <ele>476.47</ele>
        <time>2020-04-15T14:27:46Z</time>
      </trkpt>
      <trkpt lat="46.14892" lon="6.31848">
        <ele>476.95</ele>
        <time>2020-04-15T14:27:47Z</time>
      </trkpt>
      <trkpt lat="46.14837" lon="6.31834">
        <ele>476.95</ele>
        <time>2020-04-15T14:27:51Z</time>
      </trkpt>
      <trkpt lat="46.1465" lon="6.31721">
        <ele>475.51</ele>
        <time>2020-04-15T14:27:59Z</time>
      </trkpt>
      <trkpt lat="46.14626" lon="6.31716">
        <ele>474.55</ele>
        <time>2020-04-15T14:28:00Z</time>
      </trkpt>
      <trkpt lat="46.146" lon="6.31715">
        <ele>473.11</ele>
        <time>2020-04-15T14:28:02Z</time>
      </trkpt>
      <trkpt lat="46.14547" lon="6.31721">
        <ele>470.7</ele>
        <time>2020-04-15T14:28:04Z</time>
      </trkpt>
      <trkpt lat="46.14398" lon="6.31758">
        <ele>463.01</ele>
        <time>2020-04-15T14:28:10Z</time>
      </trkpt>
      <trkpt lat="46.14349" lon="6.3176">
        <ele>461.57</ele>
        <time>2020-04-15T14:28:11Z</time>
      </trkpt>
      <trkpt lat="46.14324" lon="6.31752">
        <ele>459.17</ele>
        <time>2020-04-15T14:28:13Z</time>
      </trkpt>
      <trkpt lat="46.14109" lon="6.31632">
        <ele>454.36</ele>
        <time>2020-04-15T14:28:23Z</time>
      </trkpt>
      <trkpt lat="46.1405" lon="6.31594">
        <ele>453.88</ele>
        <time>2020-04-15T14:28:27Z</time>
      </trkpt>
      <trkpt lat="46.14034" lon="6.31573">
        <ele>453.4</ele>
        <time>2020-04-15T14:28:29Z</time>
      </trkpt>
      <trkpt lat="46.14029" lon="6.31549">
        <ele>452.92</ele>
        <time>2020-04-15T14:28:30Z</time>
      </trkpt>
      <trkpt lat="46.1403" lon="6.31535">
        <ele>452.44</ele>
        <time>2020-04-15T14:28:31Z</time>
      </trkpt>
      <trkpt lat="46.14034" lon="6.31522">
        <ele>451.48</ele>
        <time>2020-04-15T14:28:33Z</time>
      </trkpt>
      <trkpt lat="46.14042" lon="6.31511">
        <ele>451.48</ele>
        <time>2020-04-15T14:28:34Z</time>
      </trkpt>
      <trkpt lat="46.14052" lon="6.31502">
        <ele>451.48</ele>
        <time>2020-04-15T14:28:35Z</time>
      </trkpt>
      <trkpt lat="46.14074" lon="6.31485">
        <ele>451.48</ele>
        <time>2020-04-15T14:28:36Z</time>
      </trkpt>
      <trkpt lat="46.14085" lon="6.3148">
        <ele>451.48</ele>
        <time>2020-04-15T14:28:37Z</time>
      </trkpt>
      <trkpt lat="46.14096" lon="6.3148">
        <ele>451.96</ele>
        <time>2020-04-15T14:28:38Z</time>
      </trkpt>
      <trkpt lat="46.14106" lon="6.31482">
        <ele>451.96</ele>
        <time>2020-04-15T14:28:39Z</time>
      </trkpt>
      <trkpt lat="46.14117" lon="6.31487">
        <ele>451.96</ele>
        <time>2020-04-15T14:28:40Z</time>
      </trkpt>
      <trkpt lat="46.14125" lon="6.31498">
        <ele>451.96</ele>
        <time>2020-04-15T14:28:41Z</time>
      </trkpt>
      <trkpt lat="46.14131" lon="6.3151">
        <ele>450.52</ele>
        <time>2020-04-15T14:28:43Z</time>
      </trkpt>
      <trkpt lat="46.14139" lon="6.31541">
        <ele>450.03</ele>
        <time>2020-04-15T14:28:44Z</time>
      </trkpt>
      <trkpt lat="46.14138" lon="6.31557">
        <ele>449.07</ele>
        <time>2020-04-15T14:28:45Z</time>
      </trkpt>
      <trkpt lat="46.14135" lon="6.31574">
        <ele>448.11</ele>
        <time>2020-04-15T14:28:46Z</time>
      </trkpt>
      <trkpt lat="46.14128" lon="6.31589">
        <ele>447.63</ele>
        <time>2020-04-15T14:28:47Z</time>
      </trkpt>
      <trkpt lat="46.1412" lon="6.31604">
        <ele>447.15</ele>
        <time>2020-04-15T14:28:48Z</time>
      </trkpt>
      <trkpt lat="46.14109" lon="6.31618">
        <ele>445.23</ele>
        <time>2020-04-15T14:28:50Z</time>
      </trkpt>
      <trkpt lat="46.14084" lon="6.31641">
        <ele>444.27</ele>
        <time>2020-04-15T14:28:51Z</time>
      </trkpt>
      <trkpt lat="46.13963" lon="6.31711">
        <ele>441.86</ele>
        <time>2020-04-15T14:28:57Z</time>
      </trkpt>
      <trkpt lat="46.13809" lon="6.31777">
        <ele>439.46</ele>
        <time>2020-04-15T14:29:01Z</time>
      </trkpt>
      <trkpt lat="46.13658" lon="6.3184">
        <ele>434.65</ele>
        <time>2020-04-15T14:29:06Z</time>
      </trkpt>
      <trkpt lat="46.1335" lon="6.32003">
        <ele>431.77</ele>
        <time>2020-04-15T14:29:15Z</time>
      </trkpt>
      <trkpt lat="46.13064" lon="6.32244">
        <ele>431.29</ele>
        <time>2020-04-15T14:29:25Z</time>
      </trkpt>
      <trkpt lat="46.12689" lon="6.32543">
        <ele>433.21</ele>
        <time>2020-04-15T14:29:38Z</time>
      </trkpt>
      <trkpt lat="46.12334" lon="6.32791">
        <ele>434.17</ele>
        <time>2020-04-15T14:29:50Z</time>
      </trkpt>
      <trkpt lat="46.12204" lon="6.32861">
        <ele>435.61</ele>
        <time>2020-04-15T14:29:55Z</time>
      </trkpt>
      <trkpt lat="46.12178" lon="6.32866">
        <ele>436.1</ele>
        <time>2020-04-15T14:29:57Z</time>
      </trkpt>
      <trkpt lat="46.12125" lon="6.32867">
        <ele>436.58</ele>
        <time>2020-04-15T14:29:58Z</time>
      </trkpt>
      <trkpt lat="46.12099" lon="6.32861">
        <ele>437.06</ele>
        <time>2020-04-15T14:29:59Z</time>
      </trkpt>
      <trkpt lat="46.12074" lon="6.32852">
        <ele>437.54</ele>
        <time>2020-04-15T14:30:00Z</time>
      </trkpt>
      <trkpt lat="46.12048" lon="6.32839">
        <ele>438.02</ele>
        <time>2020-04-15T14:30:01Z</time>
      </trkpt>
      <trkpt lat="46.12023" lon="6.32824">
        <ele>438.5</ele>
        <time>2020-04-15T14:30:02Z</time>
      </trkpt>
      <trkpt lat="46.11997" lon="6.32807">
        <ele>438.98</ele>
        <time>2020-04-15T14:30:03Z</time>
      </trkpt>
      <trkpt lat="46.11838" lon="6.32646">
        <ele>440.9</ele>
        <time>2020-04-15T14:30:09Z</time>
      </trkpt>
      <trkpt lat="46.11674" lon="6.32472">
        <ele>443.31</ele>
        <time>2020-04-15T14:30:15Z</time>
      </trkpt>
      <trkpt lat="46.11412" lon="6.32199">
        <ele>445.71</ele>
        <time>2020-04-15T14:30:21Z</time>
      </trkpt>
      <trkpt lat="46.11265" lon="6.32043">
        <ele>449.07</ele>
        <time>2020-04-15T14:30:26Z</time>
      </trkpt>
      <trkpt lat="46.11072" lon="6.31786">
        <ele>459.65</ele>
        <time>2020-04-15T14:30:34Z</time>
      </trkpt>
      <trkpt lat="46.10931" lon="6.31524">
        <ele>470.7</ele>
        <time>2020-04-15T14:30:41Z</time>
      </trkpt>
      <trkpt lat="46.10639" lon="6.30948">
        <ele>480.8</ele>
        <time>2020-04-15T14:30:56Z</time>
      </trkpt>
      <trkpt lat="46.10424" lon="6.30654">
        <ele>485.12</ele>
        <time>2020-04-15T14:31:05Z</time>
      </trkpt>
      <trkpt lat="46.10182" lon="6.30335">
        <ele>490.89</ele>
        <time>2020-04-15T14:31:15Z</time>
      </trkpt>
      <trkpt lat="46.10052" lon="6.30067">
        <ele>494.74</ele>
        <time>2020-04-15T14:31:22Z</time>
      </trkpt>
      <trkpt lat="46.0996" lon="6.29765">
        <ele>501.95</ele>
        <time>2020-04-15T14:31:29Z</time>
      </trkpt>
      <trkpt lat="46.09838" lon="6.29433">
        <ele>514.92</ele>
        <time>2020-04-15T14:31:37Z</time>
      </trkpt>
      <trkpt lat="46.09701" lon="6.29232">
        <ele>525.98</ele>
        <time>2020-04-15T14:31:43Z</time>
      </trkpt>
      <trkpt lat="46.0953" lon="6.29091">
        <ele>537.03</ele>
        <time>2020-04-15T14:31:49Z</time>
      </trkpt>
      <trkpt lat="46.09279" lon="6.28979">
        <ele>552.41</ele>
        <time>2020-04-15T14:31:57Z</time>
      </trkpt>
      <trkpt lat="46.08955" lon="6.28899">
        <ele>571.16</ele>
        <time>2020-04-15T14:32:07Z</time>
      </trkpt>
      <trkpt lat="46.0853" lon="6.28819">
        <ele>589.91</ele>
        <time>2020-04-15T14:32:20Z</time>
      </trkpt>
      <trkpt lat="46.08344" lon="6.28826">
        <ele>595.19</ele>
        <time>2020-04-15T14:32:25Z</time>
      </trkpt>
      <trkpt lat="46.08123" lon="6.28884">
        <ele>600.48</ele>
        <time>2020-04-15T14:32:30Z</time>
      </trkpt>
      <trkpt lat="46.07856" lon="6.28988">
        <ele>605.77</ele>
        <time>2020-04-15T14:32:36Z</time>
      </trkpt>
      <trkpt lat="46.07649" lon="6.29048">
        <ele>614.9</ele>
        <time>2020-04-15T14:32:43Z</time>
      </trkpt>
      <trkpt lat="46.07474" lon="6.29064">
        <ele>619.23</ele>
        <time>2020-04-15T14:32:48Z</time>
      </trkpt>
      <trkpt lat="46.07448" lon="6.29063">
        <ele>620.19</ele>
        <time>2020-04-15T14:32:49Z</time>
      </trkpt>
      <trkpt lat="46.07309" lon="6.29035">
        <ele>622.11</ele>
        <time>2020-04-15T14:32:55Z</time>
      </trkpt>
      <trkpt lat="46.07256" lon="6.29018">
        <ele>624.03</ele>
        <time>2020-04-15T14:32:58Z</time>
      </trkpt>
      <trkpt lat="46.07245" lon="6.28996">
        <ele>625.96</ele>
        <time>2020-04-15T14:33:00Z</time>
      </trkpt>
      <trkpt lat="46.07224" lon="6.28971">
        <ele>626.92</ele>
        <time>2020-04-15T14:33:01Z</time>
      </trkpt>
      <trkpt lat="46.07224" lon="6.28971">
        <ele>627.88</ele>
        <time>2020-04-15T14:33:02Z</time>
      </trkpt>
      <trkpt lat="46.07218" lon="6.28954">
        <ele>629.32</ele>
        <time>2020-04-15T14:33:03Z</time>
      </trkpt>
      <trkpt lat="46.07219" lon="6.28934">
        <ele>630.76</ele>
        <time>2020-04-15T14:33:04Z</time>
      </trkpt>
      <trkpt lat="46.07222" lon="6.28914">
        <ele>631.72</ele>
        <time>2020-04-15T14:33:05Z</time>
      </trkpt>
      <trkpt lat="46.07228" lon="6.28893">
        <ele>633.17</ele>
        <time>2020-04-15T14:33:06Z</time>
      </trkpt>
      <trkpt lat="46.07239" lon="6.28876">
        <ele>634.13</ele>
        <time>2020-04-15T14:33:07Z</time>
      </trkpt>
      <trkpt lat="46.07252" lon="6.28862">
        <ele>634.61</ele>
        <time>2020-04-15T14:33:08Z</time>
      </trkpt>
      <trkpt lat="46.07283" lon="6.28847">
        <ele>635.57</ele>
        <time>2020-04-15T14:33:09Z</time>
      </trkpt>
      <trkpt lat="46.073" lon="6.28846">
        <ele>636.05</ele>
        <time>2020-04-15T14:33:11Z</time>
      </trkpt>
      <trkpt lat="46.07318" lon="6.28845">
        <ele>635.57</ele>
        <time>2020-04-15T14:33:12Z</time>
      </trkpt>
      <trkpt lat="46.0734" lon="6.28852">
        <ele>635.09</ele>
        <time>2020-04-15T14:33:13Z</time>
      </trkpt>
      <trkpt lat="46.07378" lon="6.28875">
        <ele>634.61</ele>
        <time>2020-04-15T14:33:14Z</time>
      </trkpt>
      <trkpt lat="46.07397" lon="6.28891">
        <ele>632.68</ele>
        <time>2020-04-15T14:33:16Z</time>
      </trkpt>
      <trkpt lat="46.07414" lon="6.28911">
        <ele>631.24</ele>
        <time>2020-04-15T14:33:17Z</time>
      </trkpt>
      <trkpt lat="46.07442" lon="6.28954">
        <ele>630.28</ele>
        <time>2020-04-15T14:33:18Z</time>
      </trkpt>
      <trkpt lat="46.07454" lon="6.28976">
        <ele>627.88</ele>
        <time>2020-04-15T14:33:20Z</time>
      </trkpt>
      <trkpt lat="46.07472" lon="6.29028">
        <ele>626.92</ele>
        <time>2020-04-15T14:33:21Z</time>
      </trkpt>
      <trkpt lat="46.07502" lon="6.29154">
        <ele>621.63</ele>
        <time>2020-04-15T14:33:27Z</time>
      </trkpt>
      <trkpt lat="46.07509" lon="6.29173">
        <ele>620.67</ele>
        <time>2020-04-15T14:33:28Z</time>
      </trkpt>
      <trkpt lat="46.07517" lon="6.29191">
        <ele>619.71</ele>
        <time>2020-04-15T14:33:29Z</time>
      </trkpt>
      <trkpt lat="46.07518" lon="6.29218">
        <ele>619.23</ele>
        <time>2020-04-15T14:33:30Z</time>
      </trkpt>
      <trkpt lat="46.0751" lon="6.29241">
        <ele>618.26</ele>
        <time>2020-04-15T14:33:31Z</time>
      </trkpt>
      <trkpt lat="46.07476" lon="6.29343">
        <ele>615.38</ele>
        <time>2020-04-15T14:33:35Z</time>
      </trkpt>
      <trkpt lat="46.07465" lon="6.29371">
        <ele>614.42</ele>
        <time>2020-04-15T14:33:36Z</time>
      </trkpt>
      <trkpt lat="46.07289" lon="6.29636">
        <ele>605.29</ele>
        <time>2020-04-15T14:33:46Z</time>
      </trkpt>
      <trkpt lat="46.07241" lon="6.29696">
        <ele>602.88</ele>
        <time>2020-04-15T14:33:49Z</time>
      </trkpt>
      <trkpt lat="46.07151" lon="6.29797">
        <ele>596.15</ele>
        <time>2020-04-15T14:33:56Z</time>
      </trkpt>
      <trkpt lat="46.07144" lon="6.2981">
        <ele>595.19</ele>
        <time>2020-04-15T14:33:57Z</time>
      </trkpt>
      <trkpt lat="46.07086" lon="6.29984">
        <ele>587.98</ele>
        <time>2020-04-15T14:34:09Z</time>
      </trkpt>
      <trkpt lat="46.0708" lon="6.30029">
        <ele>587.02</ele>
        <time>2020-04-15T14:34:12Z</time>
      </trkpt>
      <trkpt lat="46.07074" lon="6.30047">
        <ele>586.06</ele>
        <time>2020-04-15T14:34:14Z</time>
      </trkpt>
      <trkpt lat="46.07078" lon="6.30057">
        <ele>585.58</ele>
        <time>2020-04-15T14:34:15Z</time>
      </trkpt>
      <trkpt lat="46.07084" lon="6.30081">
        <ele>583.66</ele>
        <time>2020-04-15T14:34:17Z</time>
      </trkpt>
      <trkpt lat="46.07083" lon="6.30094">
        <ele>583.18</ele>
        <time>2020-04-15T14:34:18Z</time>
      </trkpt>
      <trkpt lat="46.07065" lon="6.30135">
        <ele>580.77</ele>
        <time>2020-04-15T14:34:21Z</time>
      </trkpt>
      <trkpt lat="46.07059" lon="6.3015">
        <ele>579.81</ele>
        <time>2020-04-15T14:34:22Z</time>
      </trkpt>
      <trkpt lat="46.07047" lon="6.30208">
        <ele>577.89</ele>
        <time>2020-04-15T14:34:26Z</time>
      </trkpt>
      <trkpt lat="46.07044" lon="6.3022">
        <ele>577.41</ele>
        <time>2020-04-15T14:34:27Z</time>
      </trkpt>
      <trkpt lat="46.07031" lon="6.30238">
        <ele>576.93</ele>
        <time>2020-04-15T14:34:28Z</time>
      </trkpt>
      <trkpt lat="46.06927" lon="6.30288">
        <ele>574.04</ele>
        <time>2020-04-15T14:34:35Z</time>
      </trkpt>
      <trkpt lat="46.06873" lon="6.30315">
        <ele>571.16</ele>
        <time>2020-04-15T14:34:41Z</time>
      </trkpt>
      <trkpt lat="46.06859" lon="6.30321">
        <ele>571.16</ele>
        <time>2020-04-15T14:34:43Z</time>
      </trkpt>
      <trkpt lat="46.06859" lon="6.30325">
        <ele>571.16</ele>
        <time>2020-04-15T14:34:45Z</time>
      </trkpt>
      <trkpt lat="46.06859" lon="6.30337">
        <ele>571.16</ele>
        <time>2020-04-15T14:34:46Z</time>
      </trkpt>
      <trkpt lat="46.06858" lon="6.3035">
        <ele>570.68</ele>
        <time>2020-04-15T14:34:47Z</time>
      </trkpt>
      <trkpt lat="46.06857" lon="6.30381">
        <ele>570.68</ele>
        <time>2020-04-15T14:34:48Z</time>
      </trkpt>
      <trkpt lat="46.06854" lon="6.30394">
        <ele>570.2</ele>
        <time>2020-04-15T14:34:49Z</time>
      </trkpt>
      <trkpt lat="46.06849" lon="6.30407">
        <ele>570.2</ele>
        <time>2020-04-15T14:34:50Z</time>
      </trkpt>
      <trkpt lat="46.0683" lon="6.30462">
        <ele>569.24</ele>
        <time>2020-04-15T14:34:56Z</time>
      </trkpt>
      <trkpt lat="46.06826" lon="6.30475">
        <ele>568.76</ele>
        <time>2020-04-15T14:34:59Z</time>
      </trkpt>
      <trkpt lat="46.06824" lon="6.30478">
        <ele>568.76</ele>
        <time>2020-04-15T14:35:00Z</time>
      </trkpt>
      <trkpt lat="46.06823" lon="6.30482">
        <ele>568.28</ele>
        <time>2020-04-15T14:35:02Z</time>
      </trkpt>
      <trkpt lat="46.06823" lon="6.30482">
        <ele>568.28</ele>
        <time>2020-04-15T14:35:04Z</time>
      </trkpt>
      <trkpt lat="46.06823" lon="6.30482">
        <ele>567.8</ele>
        <time>2020-04-15T14:35:05Z</time>
      </trkpt>
      <trkpt lat="46.06826" lon="6.30474">
        <ele>567.8</ele>
        <time>2020-04-15T14:35:23Z</time>
      </trkpt>
    </trkseg>
  </trk>
</gpx>